<?xml version="1.0" encoding="UTF-8" standalone="no" ?>
<gpx xmlns="http://www.topografix.com/GPX/1/1" xmlns:xsi="http://www.w3.org/2001/XMLSchema-instance" xsi:schemaLocation="http://www.topografix.com/GPX/1/1 http://www.topografix.com/GPX/1/1/gpx.xsd" version="1.1" creator="VisuGPX - https://www.visugpx.com">
  <metadata>
    <name>83-M-Sauveclare</name>
    <desc><![CDATA[83-M-Sauveclare : chapelle St Jean %u2013 le Paroi]]></desc>
  </metadata>
  <trk>
    <name><![CDATA[2015-10-07-M-sauveclare modif]]></name>
    <trkseg>
      <trkpt lat="43.51346" lon="6.3893">
        <ele>204.5</ele>
        <time>2015-10-07T11:51:10Z</time>
      </trkpt>
      <trkpt lat="43.5141" lon="6.38935">
        <ele>206.7</ele>
        <time>2015-10-07T11:51:10Z</time>
      </trkpt>
      <trkpt lat="43.51428" lon="6.38983">
        <ele>205.3</ele>
        <time>2015-10-07T11:51:10Z</time>
      </trkpt>
      <trkpt lat="43.51448" lon="6.39029">
        <ele>206.3</ele>
        <time>2015-10-07T11:51:10Z</time>
      </trkpt>
      <trkpt lat="43.51493" lon="6.39063">
        <ele>209.4</ele>
        <time>2015-10-07T11:51:10Z</time>
      </trkpt>
      <trkpt lat="43.51539" lon="6.39081">
        <ele>213</ele>
        <time>2015-10-07T11:51:10Z</time>
      </trkpt>
      <trkpt lat="43.51588" lon="6.39086">
        <ele>217.1</ele>
        <time>2015-10-07T11:51:10Z</time>
      </trkpt>
      <trkpt lat="43.51636" lon="6.391">
        <ele>219.5</ele>
        <time>2015-10-07T11:51:10Z</time>
      </trkpt>
      <trkpt lat="43.51684" lon="6.39128">
        <ele>219.2</ele>
        <time>2015-10-07T11:51:10Z</time>
      </trkpt>
      <trkpt lat="43.51706" lon="6.39159">
        <ele>216.1</ele>
        <time>2015-10-07T11:51:10Z</time>
      </trkpt>
      <trkpt lat="43.51713" lon="6.39167">
        <ele>212.5</ele>
        <time>2015-10-07T11:51:17Z</time>
      </trkpt>
      <trkpt lat="43.51717" lon="6.39178">
        <ele>212.9</ele>
        <time>2015-10-07T11:51:23Z</time>
      </trkpt>
      <trkpt lat="43.51718" lon="6.39179">
        <ele>212.6</ele>
        <time>2015-10-07T11:51:24Z</time>
      </trkpt>
      <trkpt lat="43.51726" lon="6.39199">
        <ele>213.9</ele>
        <time>2015-10-07T11:51:44Z</time>
      </trkpt>
      <trkpt lat="43.51728" lon="6.3921">
        <ele>213.4</ele>
        <time>2015-10-07T11:51:51Z</time>
      </trkpt>
      <trkpt lat="43.51731" lon="6.3922">
        <ele>214.9</ele>
        <time>2015-10-07T11:51:58Z</time>
      </trkpt>
      <trkpt lat="43.51732" lon="6.39232">
        <ele>214.9</ele>
        <time>2015-10-07T11:52:06Z</time>
      </trkpt>
      <trkpt lat="43.51733" lon="6.39241">
        <ele>214.7</ele>
        <time>2015-10-07T11:52:11Z</time>
      </trkpt>
      <trkpt lat="43.51734" lon="6.39253">
        <ele>215.1</ele>
        <time>2015-10-07T11:52:17Z</time>
      </trkpt>
      <trkpt lat="43.51735" lon="6.39265">
        <ele>215.9</ele>
        <time>2015-10-07T11:52:24Z</time>
      </trkpt>
      <trkpt lat="43.51735" lon="6.39266">
        <ele>216</ele>
        <time>2015-10-07T11:52:25Z</time>
      </trkpt>
      <trkpt lat="43.51734" lon="6.39288">
        <ele>215.9</ele>
        <time>2015-10-07T11:52:38Z</time>
      </trkpt>
      <trkpt lat="43.51733" lon="6.39299">
        <ele>215.8</ele>
        <time>2015-10-07T11:52:44Z</time>
      </trkpt>
      <trkpt lat="43.51732" lon="6.3931">
        <ele>215.5</ele>
        <time>2015-10-07T11:52:50Z</time>
      </trkpt>
      <trkpt lat="43.51729" lon="6.39321">
        <ele>216.1</ele>
        <time>2015-10-07T11:52:57Z</time>
      </trkpt>
      <trkpt lat="43.51726" lon="6.39333">
        <ele>216.3</ele>
        <time>2015-10-07T11:53:05Z</time>
      </trkpt>
      <trkpt lat="43.51723" lon="6.39344">
        <ele>216.7</ele>
        <time>2015-10-07T11:53:13Z</time>
      </trkpt>
      <trkpt lat="43.5172" lon="6.39355">
        <ele>217.3</ele>
        <time>2015-10-07T11:53:21Z</time>
      </trkpt>
      <trkpt lat="43.51716" lon="6.39366">
        <ele>218</ele>
        <time>2015-10-07T11:53:29Z</time>
      </trkpt>
      <trkpt lat="43.51715" lon="6.39367">
        <ele>218</ele>
        <time>2015-10-07T11:53:30Z</time>
      </trkpt>
      <trkpt lat="43.51705" lon="6.39385">
        <ele>218.4</ele>
        <time>2015-10-07T11:53:45Z</time>
      </trkpt>
      <trkpt lat="43.51699" lon="6.39394">
        <ele>218.2</ele>
        <time>2015-10-07T11:53:53Z</time>
      </trkpt>
      <trkpt lat="43.51693" lon="6.39401">
        <ele>218.6</ele>
        <time>2015-10-07T11:54:02Z</time>
      </trkpt>
      <trkpt lat="43.51688" lon="6.39408">
        <ele>219.4</ele>
        <time>2015-10-07T11:54:09Z</time>
      </trkpt>
      <trkpt lat="43.51681" lon="6.39416">
        <ele>219.5</ele>
        <time>2015-10-07T11:54:17Z</time>
      </trkpt>
      <trkpt lat="43.51676" lon="6.39426">
        <ele>219.4</ele>
        <time>2015-10-07T11:54:24Z</time>
      </trkpt>
      <trkpt lat="43.51671" lon="6.39435">
        <ele>219.3</ele>
        <time>2015-10-07T11:54:32Z</time>
      </trkpt>
      <trkpt lat="43.51671" lon="6.39437">
        <ele>219.3</ele>
        <time>2015-10-07T11:54:33Z</time>
      </trkpt>
      <trkpt lat="43.5166" lon="6.39451">
        <ele>221.2</ele>
        <time>2015-10-07T11:54:48Z</time>
      </trkpt>
      <trkpt lat="43.51653" lon="6.39454">
        <ele>221.1</ele>
        <time>2015-10-07T11:54:54Z</time>
      </trkpt>
      <trkpt lat="43.51645" lon="6.39459">
        <ele>220.9</ele>
        <time>2015-10-07T11:55:00Z</time>
      </trkpt>
      <trkpt lat="43.51639" lon="6.39464">
        <ele>221.8</ele>
        <time>2015-10-07T11:55:04Z</time>
      </trkpt>
      <trkpt lat="43.51632" lon="6.39471">
        <ele>222.5</ele>
        <time>2015-10-07T11:55:10Z</time>
      </trkpt>
      <trkpt lat="43.51627" lon="6.39482">
        <ele>222.6</ele>
        <time>2015-10-07T11:55:16Z</time>
      </trkpt>
      <trkpt lat="43.51622" lon="6.39491">
        <ele>223.4</ele>
        <time>2015-10-07T11:55:23Z</time>
      </trkpt>
      <trkpt lat="43.51617" lon="6.395">
        <ele>223</ele>
        <time>2015-10-07T11:55:31Z</time>
      </trkpt>
      <trkpt lat="43.51613" lon="6.3951">
        <ele>222.2</ele>
        <time>2015-10-07T11:55:37Z</time>
      </trkpt>
      <trkpt lat="43.51613" lon="6.39512">
        <ele>222.3</ele>
        <time>2015-10-07T11:55:38Z</time>
      </trkpt>
      <trkpt lat="43.51607" lon="6.39532">
        <ele>223.9</ele>
        <time>2015-10-07T11:55:52Z</time>
      </trkpt>
      <trkpt lat="43.51601" lon="6.3954">
        <ele>224.6</ele>
        <time>2015-10-07T11:56:01Z</time>
      </trkpt>
      <trkpt lat="43.516" lon="6.39551">
        <ele>225.4</ele>
        <time>2015-10-07T11:56:08Z</time>
      </trkpt>
      <trkpt lat="43.51598" lon="6.39562">
        <ele>225</ele>
        <time>2015-10-07T11:56:15Z</time>
      </trkpt>
      <trkpt lat="43.51595" lon="6.39573">
        <ele>225.8</ele>
        <time>2015-10-07T11:56:22Z</time>
      </trkpt>
      <trkpt lat="43.51583" lon="6.39603">
        <ele>225</ele>
        <time>2015-10-07T11:56:52Z</time>
      </trkpt>
      <trkpt lat="43.51555" lon="6.39754">
        <ele>226.8</ele>
        <time>2015-10-07T11:58:25Z</time>
      </trkpt>
      <trkpt lat="43.5158" lon="6.3976">
        <ele>227.8</ele>
        <time>2015-10-07T11:58:26Z</time>
      </trkpt>
      <trkpt lat="43.51581" lon="6.39771">
        <ele>228.8</ele>
        <time>2015-10-07T11:58:30Z</time>
      </trkpt>
      <trkpt lat="43.51575" lon="6.3978">
        <ele>229.4</ele>
        <time>2015-10-07T11:58:40Z</time>
      </trkpt>
      <trkpt lat="43.51579" lon="6.3979">
        <ele>230.6</ele>
        <time>2015-10-07T11:58:49Z</time>
      </trkpt>
      <trkpt lat="43.51582" lon="6.39801">
        <ele>230.6</ele>
        <time>2015-10-07T11:58:55Z</time>
      </trkpt>
      <trkpt lat="43.51587" lon="6.39811">
        <ele>230.3</ele>
        <time>2015-10-07T11:59:03Z</time>
      </trkpt>
      <trkpt lat="43.51592" lon="6.39821">
        <ele>230.9</ele>
        <time>2015-10-07T11:59:24Z</time>
      </trkpt>
      <trkpt lat="43.51595" lon="6.39831">
        <ele>231.8</ele>
        <time>2015-10-07T11:59:37Z</time>
      </trkpt>
      <trkpt lat="43.51595" lon="6.39832">
        <ele>231.5</ele>
        <time>2015-10-07T11:59:38Z</time>
      </trkpt>
      <trkpt lat="43.51599" lon="6.39855">
        <ele>229.9</ele>
        <time>2015-10-07T11:59:59Z</time>
      </trkpt>
      <trkpt lat="43.51603" lon="6.39865">
        <ele>230.2</ele>
        <time>2015-10-07T12:00:08Z</time>
      </trkpt>
      <trkpt lat="43.51603" lon="6.39877">
        <ele>230.7</ele>
        <time>2015-10-07T12:00:14Z</time>
      </trkpt>
      <trkpt lat="43.51607" lon="6.39886">
        <ele>231.6</ele>
        <time>2015-10-07T12:00:20Z</time>
      </trkpt>
      <trkpt lat="43.51608" lon="6.39897">
        <ele>231</ele>
        <time>2015-10-07T12:00:28Z</time>
      </trkpt>
      <trkpt lat="43.51611" lon="6.39907">
        <ele>230.8</ele>
        <time>2015-10-07T12:00:36Z</time>
      </trkpt>
      <trkpt lat="43.51609" lon="6.39919">
        <ele>230.3</ele>
        <time>2015-10-07T12:00:44Z</time>
      </trkpt>
      <trkpt lat="43.5161" lon="6.3992">
        <ele>230.4</ele>
        <time>2015-10-07T12:00:45Z</time>
      </trkpt>
      <trkpt lat="43.51612" lon="6.39941">
        <ele>230</ele>
        <time>2015-10-07T12:00:57Z</time>
      </trkpt>
      <trkpt lat="43.51611" lon="6.39953">
        <ele>230.4</ele>
        <time>2015-10-07T12:01:04Z</time>
      </trkpt>
      <trkpt lat="43.5161" lon="6.39965">
        <ele>230</ele>
        <time>2015-10-07T12:01:12Z</time>
      </trkpt>
      <trkpt lat="43.51608" lon="6.39977">
        <ele>230.6</ele>
        <time>2015-10-07T12:01:20Z</time>
      </trkpt>
      <trkpt lat="43.51605" lon="6.39988">
        <ele>230.3</ele>
        <time>2015-10-07T12:01:28Z</time>
      </trkpt>
      <trkpt lat="43.51601" lon="6.39999">
        <ele>230.5</ele>
        <time>2015-10-07T12:01:36Z</time>
      </trkpt>
      <trkpt lat="43.51596" lon="6.40007">
        <ele>231.9</ele>
        <time>2015-10-07T12:01:44Z</time>
      </trkpt>
      <trkpt lat="43.51593" lon="6.40018">
        <ele>230.9</ele>
        <time>2015-10-07T12:01:51Z</time>
      </trkpt>
      <trkpt lat="43.51593" lon="6.40019">
        <ele>230.8</ele>
        <time>2015-10-07T12:01:52Z</time>
      </trkpt>
      <trkpt lat="43.51584" lon="6.40037">
        <ele>230.6</ele>
        <time>2015-10-07T12:02:08Z</time>
      </trkpt>
      <trkpt lat="43.51581" lon="6.40049">
        <ele>231.4</ele>
        <time>2015-10-07T12:02:14Z</time>
      </trkpt>
      <trkpt lat="43.51577" lon="6.40057">
        <ele>231.1</ele>
        <time>2015-10-07T12:02:20Z</time>
      </trkpt>
      <trkpt lat="43.51573" lon="6.40068">
        <ele>230.9</ele>
        <time>2015-10-07T12:02:26Z</time>
      </trkpt>
      <trkpt lat="43.5157" lon="6.40078">
        <ele>231.1</ele>
        <time>2015-10-07T12:02:32Z</time>
      </trkpt>
      <trkpt lat="43.51566" lon="6.40089">
        <ele>231.7</ele>
        <time>2015-10-07T12:02:42Z</time>
      </trkpt>
      <trkpt lat="43.5156" lon="6.40097">
        <ele>231.3</ele>
        <time>2015-10-07T12:02:51Z</time>
      </trkpt>
      <trkpt lat="43.51555" lon="6.40106">
        <ele>231.4</ele>
        <time>2015-10-07T12:02:59Z</time>
      </trkpt>
      <trkpt lat="43.51554" lon="6.40107">
        <ele>231.4</ele>
        <time>2015-10-07T12:03:00Z</time>
      </trkpt>
      <trkpt lat="43.51518" lon="6.4028">
        <ele>232.4</ele>
        <time>2015-10-07T12:04:41Z</time>
      </trkpt>
      <trkpt lat="43.5151" lon="6.40281">
        <ele>232.6</ele>
        <time>2015-10-07T12:05:03Z</time>
      </trkpt>
      <trkpt lat="43.51505" lon="6.40291">
        <ele>232.4</ele>
        <time>2015-10-07T12:06:10Z</time>
      </trkpt>
      <trkpt lat="43.51505" lon="6.40293">
        <ele>232.1</ele>
        <time>2015-10-07T12:06:11Z</time>
      </trkpt>
      <trkpt lat="43.51511" lon="6.40314">
        <ele>231.7</ele>
        <time>2015-10-07T12:06:30Z</time>
      </trkpt>
      <trkpt lat="43.51516" lon="6.40324">
        <ele>232.6</ele>
        <time>2015-10-07T12:06:42Z</time>
      </trkpt>
      <trkpt lat="43.51519" lon="6.40335">
        <ele>232.5</ele>
        <time>2015-10-07T12:07:21Z</time>
      </trkpt>
      <trkpt lat="43.51519" lon="6.40336">
        <ele>232.5</ele>
        <time>2015-10-07T12:07:22Z</time>
      </trkpt>
      <trkpt lat="43.51528" lon="6.40354">
        <ele>230.2</ele>
        <time>2015-10-07T12:08:09Z</time>
      </trkpt>
      <trkpt lat="43.51531" lon="6.40365">
        <ele>231.8</ele>
        <time>2015-10-07T12:08:19Z</time>
      </trkpt>
      <trkpt lat="43.51536" lon="6.40375">
        <ele>231.5</ele>
        <time>2015-10-07T12:08:28Z</time>
      </trkpt>
      <trkpt lat="43.51536" lon="6.40376">
        <ele>231.1</ele>
        <time>2015-10-07T12:08:29Z</time>
      </trkpt>
      <trkpt lat="43.51544" lon="6.40394">
        <ele>231.9</ele>
        <time>2015-10-07T12:08:47Z</time>
      </trkpt>
      <trkpt lat="43.5155" lon="6.40402">
        <ele>232.2</ele>
        <time>2015-10-07T12:08:55Z</time>
      </trkpt>
      <trkpt lat="43.51555" lon="6.40411">
        <ele>231.8</ele>
        <time>2015-10-07T12:09:03Z</time>
      </trkpt>
      <trkpt lat="43.51558" lon="6.40423">
        <ele>231.9</ele>
        <time>2015-10-07T12:09:14Z</time>
      </trkpt>
      <trkpt lat="43.51559" lon="6.40434">
        <ele>233.2</ele>
        <time>2015-10-07T12:09:25Z</time>
      </trkpt>
      <trkpt lat="43.51562" lon="6.40445">
        <ele>233</ele>
        <time>2015-10-07T12:09:33Z</time>
      </trkpt>
      <trkpt lat="43.51563" lon="6.40446">
        <ele>232.4</ele>
        <time>2015-10-07T12:09:34Z</time>
      </trkpt>
      <trkpt lat="43.51565" lon="6.40467">
        <ele>232.4</ele>
        <time>2015-10-07T12:09:46Z</time>
      </trkpt>
      <trkpt lat="43.51568" lon="6.40478">
        <ele>231.8</ele>
        <time>2015-10-07T12:09:54Z</time>
      </trkpt>
      <trkpt lat="43.51567" lon="6.40491">
        <ele>231.9</ele>
        <time>2015-10-07T12:10:02Z</time>
      </trkpt>
      <trkpt lat="43.51567" lon="6.40502">
        <ele>231.9</ele>
        <time>2015-10-07T12:10:10Z</time>
      </trkpt>
      <trkpt lat="43.5157" lon="6.40513">
        <ele>231.9</ele>
        <time>2015-10-07T12:10:16Z</time>
      </trkpt>
      <trkpt lat="43.51572" lon="6.40525">
        <ele>231.8</ele>
        <time>2015-10-07T12:10:25Z</time>
      </trkpt>
      <trkpt lat="43.51574" lon="6.40536">
        <ele>232.1</ele>
        <time>2015-10-07T12:10:38Z</time>
      </trkpt>
      <trkpt lat="43.51573" lon="6.40538">
        <ele>232.3</ele>
        <time>2015-10-07T12:10:39Z</time>
      </trkpt>
      <trkpt lat="43.51576" lon="6.40559">
        <ele>234</ele>
        <time>2015-10-07T12:10:56Z</time>
      </trkpt>
      <trkpt lat="43.51576" lon="6.40571">
        <ele>235.1</ele>
        <time>2015-10-07T12:11:08Z</time>
      </trkpt>
      <trkpt lat="43.51579" lon="6.40582">
        <ele>235.8</ele>
        <time>2015-10-07T12:11:16Z</time>
      </trkpt>
      <trkpt lat="43.51582" lon="6.40592">
        <ele>236.2</ele>
        <time>2015-10-07T12:11:25Z</time>
      </trkpt>
      <trkpt lat="43.51586" lon="6.40603">
        <ele>237.4</ele>
        <time>2015-10-07T12:11:35Z</time>
      </trkpt>
      <trkpt lat="43.51586" lon="6.40614">
        <ele>237.4</ele>
        <time>2015-10-07T12:11:42Z</time>
      </trkpt>
      <trkpt lat="43.51587" lon="6.40616">
        <ele>237.6</ele>
        <time>2015-10-07T12:11:43Z</time>
      </trkpt>
      <trkpt lat="43.5159" lon="6.40635">
        <ele>237.3</ele>
        <time>2015-10-07T12:11:54Z</time>
      </trkpt>
      <trkpt lat="43.51592" lon="6.40647">
        <ele>237.2</ele>
        <time>2015-10-07T12:12:01Z</time>
      </trkpt>
      <trkpt lat="43.51596" lon="6.40657">
        <ele>237.1</ele>
        <time>2015-10-07T12:12:06Z</time>
      </trkpt>
      <trkpt lat="43.51601" lon="6.40666">
        <ele>237.9</ele>
        <time>2015-10-07T12:12:12Z</time>
      </trkpt>
      <trkpt lat="43.51607" lon="6.40675">
        <ele>238.2</ele>
        <time>2015-10-07T12:12:17Z</time>
      </trkpt>
      <trkpt lat="43.51614" lon="6.40682">
        <ele>238</ele>
        <time>2015-10-07T12:12:23Z</time>
      </trkpt>
      <trkpt lat="43.51621" lon="6.40687">
        <ele>238.4</ele>
        <time>2015-10-07T12:12:29Z</time>
      </trkpt>
      <trkpt lat="43.51629" lon="6.40691">
        <ele>237.5</ele>
        <time>2015-10-07T12:12:37Z</time>
      </trkpt>
      <trkpt lat="43.51637" lon="6.40689">
        <ele>236.1</ele>
        <time>2015-10-07T12:12:44Z</time>
      </trkpt>
      <trkpt lat="43.51638" lon="6.40688">
        <ele>236.3</ele>
        <time>2015-10-07T12:12:45Z</time>
      </trkpt>
      <trkpt lat="43.51653" lon="6.4069">
        <ele>234.2</ele>
        <time>2015-10-07T12:12:58Z</time>
      </trkpt>
      <trkpt lat="43.51661" lon="6.40689">
        <ele>232.9</ele>
        <time>2015-10-07T12:13:06Z</time>
      </trkpt>
      <trkpt lat="43.51669" lon="6.4069">
        <ele>231.8</ele>
        <time>2015-10-07T12:13:13Z</time>
      </trkpt>
      <trkpt lat="43.51678" lon="6.40689">
        <ele>231.1</ele>
        <time>2015-10-07T12:13:35Z</time>
      </trkpt>
      <trkpt lat="43.51685" lon="6.40684">
        <ele>230.8</ele>
        <time>2015-10-07T12:14:54Z</time>
      </trkpt>
      <trkpt lat="43.51686" lon="6.40684">
        <ele>230.7</ele>
        <time>2015-10-07T12:14:55Z</time>
      </trkpt>
      <trkpt lat="43.51702" lon="6.40685">
        <ele>230.9</ele>
        <time>2015-10-07T12:15:09Z</time>
      </trkpt>
      <trkpt lat="43.51711" lon="6.40687">
        <ele>231.5</ele>
        <time>2015-10-07T12:15:16Z</time>
      </trkpt>
      <trkpt lat="43.51719" lon="6.40687">
        <ele>231.5</ele>
        <time>2015-10-07T12:15:23Z</time>
      </trkpt>
      <trkpt lat="43.51728" lon="6.40689">
        <ele>231.4</ele>
        <time>2015-10-07T12:15:32Z</time>
      </trkpt>
      <trkpt lat="43.51736" lon="6.40689">
        <ele>231.9</ele>
        <time>2015-10-07T12:15:41Z</time>
      </trkpt>
      <trkpt lat="43.51745" lon="6.40689">
        <ele>232</ele>
        <time>2015-10-07T12:15:50Z</time>
      </trkpt>
      <trkpt lat="43.51754" lon="6.40691">
        <ele>232.8</ele>
        <time>2015-10-07T12:15:58Z</time>
      </trkpt>
      <trkpt lat="43.51755" lon="6.40691">
        <ele>232.7</ele>
        <time>2015-10-07T12:15:59Z</time>
      </trkpt>
      <trkpt lat="43.5177" lon="6.40692">
        <ele>232.8</ele>
        <time>2015-10-07T12:16:11Z</time>
      </trkpt>
      <trkpt lat="43.51778" lon="6.40693">
        <ele>232.6</ele>
        <time>2015-10-07T12:16:19Z</time>
      </trkpt>
      <trkpt lat="43.51786" lon="6.40695">
        <ele>233</ele>
        <time>2015-10-07T12:16:27Z</time>
      </trkpt>
      <trkpt lat="43.51794" lon="6.40697">
        <ele>233.3</ele>
        <time>2015-10-07T12:16:33Z</time>
      </trkpt>
      <trkpt lat="43.51802" lon="6.40696">
        <ele>232.8</ele>
        <time>2015-10-07T12:16:43Z</time>
      </trkpt>
      <trkpt lat="43.51811" lon="6.40695">
        <ele>233.3</ele>
        <time>2015-10-07T12:16:49Z</time>
      </trkpt>
      <trkpt lat="43.51819" lon="6.40699">
        <ele>233.8</ele>
        <time>2015-10-07T12:16:58Z</time>
      </trkpt>
      <trkpt lat="43.51826" lon="6.40699">
        <ele>233.8</ele>
        <time>2015-10-07T12:17:04Z</time>
      </trkpt>
      <trkpt lat="43.51828" lon="6.40698">
        <ele>233.7</ele>
        <time>2015-10-07T12:17:05Z</time>
      </trkpt>
      <trkpt lat="43.51843" lon="6.40696">
        <ele>232.7</ele>
        <time>2015-10-07T12:17:15Z</time>
      </trkpt>
      <trkpt lat="43.51851" lon="6.40698">
        <ele>232.4</ele>
        <time>2015-10-07T12:17:22Z</time>
      </trkpt>
      <trkpt lat="43.51859" lon="6.40699">
        <ele>233.1</ele>
        <time>2015-10-07T12:17:30Z</time>
      </trkpt>
      <trkpt lat="43.51868" lon="6.40699">
        <ele>233.2</ele>
        <time>2015-10-07T12:17:37Z</time>
      </trkpt>
      <trkpt lat="43.51877" lon="6.40697">
        <ele>233.5</ele>
        <time>2015-10-07T12:17:43Z</time>
      </trkpt>
      <trkpt lat="43.51885" lon="6.40698">
        <ele>233.5</ele>
        <time>2015-10-07T12:17:49Z</time>
      </trkpt>
      <trkpt lat="43.51894" lon="6.40699">
        <ele>233.1</ele>
        <time>2015-10-07T12:17:55Z</time>
      </trkpt>
      <trkpt lat="43.51902" lon="6.407">
        <ele>233.1</ele>
        <time>2015-10-07T12:18:00Z</time>
      </trkpt>
      <trkpt lat="43.51909" lon="6.407">
        <ele>233.4</ele>
        <time>2015-10-07T12:18:05Z</time>
      </trkpt>
      <trkpt lat="43.51911" lon="6.407">
        <ele>233.1</ele>
        <time>2015-10-07T12:18:06Z</time>
      </trkpt>
      <trkpt lat="43.51925" lon="6.40704">
        <ele>232.8</ele>
        <time>2015-10-07T12:18:19Z</time>
      </trkpt>
      <trkpt lat="43.51934" lon="6.40705">
        <ele>233.2</ele>
        <time>2015-10-07T12:18:25Z</time>
      </trkpt>
      <trkpt lat="43.51942" lon="6.40707">
        <ele>232.7</ele>
        <time>2015-10-07T12:18:32Z</time>
      </trkpt>
      <trkpt lat="43.51951" lon="6.40708">
        <ele>232.7</ele>
        <time>2015-10-07T12:18:38Z</time>
      </trkpt>
      <trkpt lat="43.51958" lon="6.40713">
        <ele>233.5</ele>
        <time>2015-10-07T12:18:45Z</time>
      </trkpt>
      <trkpt lat="43.51966" lon="6.40719">
        <ele>233.4</ele>
        <time>2015-10-07T12:18:53Z</time>
      </trkpt>
      <trkpt lat="43.51973" lon="6.40724">
        <ele>233.8</ele>
        <time>2015-10-07T12:19:00Z</time>
      </trkpt>
      <trkpt lat="43.51981" lon="6.40728">
        <ele>234</ele>
        <time>2015-10-07T12:19:06Z</time>
      </trkpt>
      <trkpt lat="43.51983" lon="6.40728">
        <ele>234.2</ele>
        <time>2015-10-07T12:19:07Z</time>
      </trkpt>
      <trkpt lat="43.51996" lon="6.40736">
        <ele>234.9</ele>
        <time>2015-10-07T12:19:18Z</time>
      </trkpt>
      <trkpt lat="43.52003" lon="6.40741">
        <ele>235.2</ele>
        <time>2015-10-07T12:19:24Z</time>
      </trkpt>
      <trkpt lat="43.5201" lon="6.40747">
        <ele>234.7</ele>
        <time>2015-10-07T12:19:31Z</time>
      </trkpt>
      <trkpt lat="43.52017" lon="6.40752">
        <ele>234.8</ele>
        <time>2015-10-07T12:19:37Z</time>
      </trkpt>
      <trkpt lat="43.52024" lon="6.40759">
        <ele>234.5</ele>
        <time>2015-10-07T12:19:45Z</time>
      </trkpt>
      <trkpt lat="43.52031" lon="6.40764">
        <ele>234.3</ele>
        <time>2015-10-07T12:19:51Z</time>
      </trkpt>
      <trkpt lat="43.52039" lon="6.4077">
        <ele>234.3</ele>
        <time>2015-10-07T12:19:58Z</time>
      </trkpt>
      <trkpt lat="43.52047" lon="6.40775">
        <ele>234.3</ele>
        <time>2015-10-07T12:20:05Z</time>
      </trkpt>
      <trkpt lat="43.52054" lon="6.40781">
        <ele>234.8</ele>
        <time>2015-10-07T12:20:13Z</time>
      </trkpt>
      <trkpt lat="43.52055" lon="6.40782">
        <ele>234.4</ele>
        <time>2015-10-07T12:20:14Z</time>
      </trkpt>
      <trkpt lat="43.52068" lon="6.40796">
        <ele>234.2</ele>
        <time>2015-10-07T12:20:29Z</time>
      </trkpt>
      <trkpt lat="43.52073" lon="6.40804">
        <ele>234.4</ele>
        <time>2015-10-07T12:20:36Z</time>
      </trkpt>
      <trkpt lat="43.5208" lon="6.40813">
        <ele>235.2</ele>
        <time>2015-10-07T12:20:43Z</time>
      </trkpt>
      <trkpt lat="43.52087" lon="6.4082">
        <ele>235.4</ele>
        <time>2015-10-07T12:20:50Z</time>
      </trkpt>
      <trkpt lat="43.52093" lon="6.40826">
        <ele>235.1</ele>
        <time>2015-10-07T12:20:58Z</time>
      </trkpt>
      <trkpt lat="43.52101" lon="6.40829">
        <ele>235.2</ele>
        <time>2015-10-07T12:21:03Z</time>
      </trkpt>
      <trkpt lat="43.52108" lon="6.40831">
        <ele>235.6</ele>
        <time>2015-10-07T12:21:08Z</time>
      </trkpt>
      <trkpt lat="43.52116" lon="6.40837">
        <ele>235.8</ele>
        <time>2015-10-07T12:21:14Z</time>
      </trkpt>
      <trkpt lat="43.52117" lon="6.40838">
        <ele>235.8</ele>
        <time>2015-10-07T12:21:15Z</time>
      </trkpt>
      <trkpt lat="43.52132" lon="6.40845">
        <ele>235.2</ele>
        <time>2015-10-07T12:21:28Z</time>
      </trkpt>
      <trkpt lat="43.52139" lon="6.4085">
        <ele>235.5</ele>
        <time>2015-10-07T12:21:35Z</time>
      </trkpt>
      <trkpt lat="43.52147" lon="6.40853">
        <ele>235.5</ele>
        <time>2015-10-07T12:21:42Z</time>
      </trkpt>
      <trkpt lat="43.52155" lon="6.40852">
        <ele>235.2</ele>
        <time>2015-10-07T12:21:48Z</time>
      </trkpt>
      <trkpt lat="43.52163" lon="6.40851">
        <ele>235.5</ele>
        <time>2015-10-07T12:21:54Z</time>
      </trkpt>
      <trkpt lat="43.52171" lon="6.40851">
        <ele>235.3</ele>
        <time>2015-10-07T12:22:00Z</time>
      </trkpt>
      <trkpt lat="43.5218" lon="6.40852">
        <ele>236.3</ele>
        <time>2015-10-07T12:22:07Z</time>
      </trkpt>
      <trkpt lat="43.52189" lon="6.40852">
        <ele>236.7</ele>
        <time>2015-10-07T12:22:15Z</time>
      </trkpt>
      <trkpt lat="43.5219" lon="6.40852">
        <ele>236.7</ele>
        <time>2015-10-07T12:22:16Z</time>
      </trkpt>
      <trkpt lat="43.52205" lon="6.40848">
        <ele>236.3</ele>
        <time>2015-10-07T12:22:30Z</time>
      </trkpt>
      <trkpt lat="43.52213" lon="6.40844">
        <ele>236.4</ele>
        <time>2015-10-07T12:22:35Z</time>
      </trkpt>
      <trkpt lat="43.52222" lon="6.40842">
        <ele>236.5</ele>
        <time>2015-10-07T12:22:40Z</time>
      </trkpt>
      <trkpt lat="43.52229" lon="6.40835">
        <ele>236.6</ele>
        <time>2015-10-07T12:22:45Z</time>
      </trkpt>
      <trkpt lat="43.52237" lon="6.40832">
        <ele>235.7</ele>
        <time>2015-10-07T12:22:52Z</time>
      </trkpt>
      <trkpt lat="43.52245" lon="6.40828">
        <ele>235.9</ele>
        <time>2015-10-07T12:23:00Z</time>
      </trkpt>
      <trkpt lat="43.52252" lon="6.40824">
        <ele>236.4</ele>
        <time>2015-10-07T12:23:06Z</time>
      </trkpt>
      <trkpt lat="43.52259" lon="6.4082">
        <ele>235.5</ele>
        <time>2015-10-07T12:23:11Z</time>
      </trkpt>
      <trkpt lat="43.52268" lon="6.40815">
        <ele>236.1</ele>
        <time>2015-10-07T12:23:18Z</time>
      </trkpt>
      <trkpt lat="43.52269" lon="6.40815">
        <ele>236.2</ele>
        <time>2015-10-07T12:23:19Z</time>
      </trkpt>
      <trkpt lat="43.52283" lon="6.40807">
        <ele>236.4</ele>
        <time>2015-10-07T12:23:29Z</time>
      </trkpt>
      <trkpt lat="43.52291" lon="6.40803">
        <ele>235.7</ele>
        <time>2015-10-07T12:23:36Z</time>
      </trkpt>
      <trkpt lat="43.52299" lon="6.40799">
        <ele>236</ele>
        <time>2015-10-07T12:23:43Z</time>
      </trkpt>
      <trkpt lat="43.52307" lon="6.40795">
        <ele>236</ele>
        <time>2015-10-07T12:23:51Z</time>
      </trkpt>
      <trkpt lat="43.52315" lon="6.4079">
        <ele>236.3</ele>
        <time>2015-10-07T12:23:59Z</time>
      </trkpt>
      <trkpt lat="43.52323" lon="6.40791">
        <ele>236.4</ele>
        <time>2015-10-07T12:24:07Z</time>
      </trkpt>
      <trkpt lat="43.52331" lon="6.40785">
        <ele>236.1</ele>
        <time>2015-10-07T12:24:13Z</time>
      </trkpt>
      <trkpt lat="43.52339" lon="6.40781">
        <ele>236.7</ele>
        <time>2015-10-07T12:24:19Z</time>
      </trkpt>
      <trkpt lat="43.52341" lon="6.40781">
        <ele>236.8</ele>
        <time>2015-10-07T12:24:20Z</time>
      </trkpt>
      <trkpt lat="43.52355" lon="6.40774">
        <ele>236.3</ele>
        <time>2015-10-07T12:24:30Z</time>
      </trkpt>
      <trkpt lat="43.52362" lon="6.40769">
        <ele>236.3</ele>
        <time>2015-10-07T12:24:35Z</time>
      </trkpt>
      <trkpt lat="43.5237" lon="6.40765">
        <ele>236.7</ele>
        <time>2015-10-07T12:24:45Z</time>
      </trkpt>
      <trkpt lat="43.52377" lon="6.40761">
        <ele>236.6</ele>
        <time>2015-10-07T12:24:51Z</time>
      </trkpt>
      <trkpt lat="43.52383" lon="6.40757">
        <ele>236.5</ele>
        <time>2015-10-07T12:24:55Z</time>
      </trkpt>
      <trkpt lat="43.5239" lon="6.40749">
        <ele>236.9</ele>
        <time>2015-10-07T12:25:03Z</time>
      </trkpt>
      <trkpt lat="43.52395" lon="6.40739">
        <ele>237</ele>
        <time>2015-10-07T12:25:18Z</time>
      </trkpt>
      <trkpt lat="43.52397" lon="6.40728">
        <ele>237</ele>
        <time>2015-10-07T12:25:48Z</time>
      </trkpt>
      <trkpt lat="43.52397" lon="6.40726">
        <ele>237</ele>
        <time>2015-10-07T12:25:49Z</time>
      </trkpt>
      <trkpt lat="43.52401" lon="6.40739">
        <ele>236.8</ele>
        <time>2015-10-07T12:27:04Z</time>
      </trkpt>
      <trkpt lat="43.52391" lon="6.40756">
        <ele>233.6</ele>
        <time>2015-10-07T12:27:28Z</time>
      </trkpt>
      <trkpt lat="43.52386" lon="6.40765">
        <ele>232.8</ele>
        <time>2015-10-07T12:27:33Z</time>
      </trkpt>
      <trkpt lat="43.5238" lon="6.40775">
        <ele>232</ele>
        <time>2015-10-07T12:27:41Z</time>
      </trkpt>
      <trkpt lat="43.52375" lon="6.40784">
        <ele>230.7</ele>
        <time>2015-10-07T12:27:50Z</time>
      </trkpt>
      <trkpt lat="43.52368" lon="6.4079">
        <ele>230.2</ele>
        <time>2015-10-07T12:27:57Z</time>
      </trkpt>
      <trkpt lat="43.5236" lon="6.40796">
        <ele>228.1</ele>
        <time>2015-10-07T12:28:08Z</time>
      </trkpt>
      <trkpt lat="43.5236" lon="6.40796">
        <ele>227.9</ele>
        <time>2015-10-07T12:28:09Z</time>
      </trkpt>
      <trkpt lat="43.52345" lon="6.40799">
        <ele>225.7</ele>
        <time>2015-10-07T12:28:21Z</time>
      </trkpt>
      <trkpt lat="43.52337" lon="6.40805">
        <ele>224.3</ele>
        <time>2015-10-07T12:28:29Z</time>
      </trkpt>
      <trkpt lat="43.5233" lon="6.40811">
        <ele>223.4</ele>
        <time>2015-10-07T12:28:39Z</time>
      </trkpt>
      <trkpt lat="43.52322" lon="6.40816">
        <ele>223.2</ele>
        <time>2015-10-07T12:28:47Z</time>
      </trkpt>
      <trkpt lat="43.52314" lon="6.40818">
        <ele>222.5</ele>
        <time>2015-10-07T12:28:54Z</time>
      </trkpt>
      <trkpt lat="43.52306" lon="6.40822">
        <ele>222.3</ele>
        <time>2015-10-07T12:29:00Z</time>
      </trkpt>
      <trkpt lat="43.52297" lon="6.40823">
        <ele>221.8</ele>
        <time>2015-10-07T12:29:06Z</time>
      </trkpt>
      <trkpt lat="43.52291" lon="6.4083">
        <ele>221.7</ele>
        <time>2015-10-07T12:29:12Z</time>
      </trkpt>
      <trkpt lat="43.5229" lon="6.40831">
        <ele>221.7</ele>
        <time>2015-10-07T12:29:13Z</time>
      </trkpt>
      <trkpt lat="43.52277" lon="6.40839">
        <ele>221.2</ele>
        <time>2015-10-07T12:29:26Z</time>
      </trkpt>
      <trkpt lat="43.52268" lon="6.40842">
        <ele>220.7</ele>
        <time>2015-10-07T12:29:33Z</time>
      </trkpt>
      <trkpt lat="43.52261" lon="6.40849">
        <ele>221.2</ele>
        <time>2015-10-07T12:29:41Z</time>
      </trkpt>
      <trkpt lat="43.52253" lon="6.40856">
        <ele>221</ele>
        <time>2015-10-07T12:29:49Z</time>
      </trkpt>
      <trkpt lat="43.52246" lon="6.40862">
        <ele>219.6</ele>
        <time>2015-10-07T12:29:58Z</time>
      </trkpt>
      <trkpt lat="43.52239" lon="6.40868">
        <ele>218.6</ele>
        <time>2015-10-07T12:30:07Z</time>
      </trkpt>
      <trkpt lat="43.52232" lon="6.40876">
        <ele>217.6</ele>
        <time>2015-10-07T12:30:14Z</time>
      </trkpt>
      <trkpt lat="43.52231" lon="6.40877">
        <ele>217.6</ele>
        <time>2015-10-07T12:30:15Z</time>
      </trkpt>
      <trkpt lat="43.52219" lon="6.40891">
        <ele>216.3</ele>
        <time>2015-10-07T12:30:36Z</time>
      </trkpt>
      <trkpt lat="43.52214" lon="6.409">
        <ele>214.9</ele>
        <time>2015-10-07T12:30:49Z</time>
      </trkpt>
      <trkpt lat="43.52208" lon="6.40907">
        <ele>214.5</ele>
        <time>2015-10-07T12:31:00Z</time>
      </trkpt>
      <trkpt lat="43.52211" lon="6.40918">
        <ele>214</ele>
        <time>2015-10-07T12:31:48Z</time>
      </trkpt>
      <trkpt lat="43.52211" lon="6.40919">
        <ele>213.9</ele>
        <time>2015-10-07T12:31:49Z</time>
      </trkpt>
      <trkpt lat="43.52202" lon="6.40913">
        <ele>214.6</ele>
        <time>2015-10-07T12:34:14Z</time>
      </trkpt>
      <trkpt lat="43.52186" lon="6.40922">
        <ele>212.3</ele>
        <time>2015-10-07T12:35:09Z</time>
      </trkpt>
      <trkpt lat="43.52184" lon="6.40934">
        <ele>212</ele>
        <time>2015-10-07T12:35:38Z</time>
      </trkpt>
      <trkpt lat="43.52184" lon="6.40934">
        <ele>212.4</ele>
        <time>2015-10-07T12:35:39Z</time>
      </trkpt>
      <trkpt lat="43.52171" lon="6.40939">
        <ele>210.6</ele>
        <time>2015-10-07T12:36:46Z</time>
      </trkpt>
      <trkpt lat="43.5217" lon="6.40938">
        <ele>210.5</ele>
        <time>2015-10-07T12:36:47Z</time>
      </trkpt>
      <trkpt lat="43.52176" lon="6.40961">
        <ele>212.8</ele>
        <time>2015-10-07T12:37:35Z</time>
      </trkpt>
      <trkpt lat="43.52184" lon="6.40959">
        <ele>211.8</ele>
        <time>2015-10-07T12:37:58Z</time>
      </trkpt>
      <trkpt lat="43.52185" lon="6.40958">
        <ele>211.6</ele>
        <time>2015-10-07T12:37:59Z</time>
      </trkpt>
      <trkpt lat="43.52169" lon="6.40952">
        <ele>213.5</ele>
        <time>2015-10-07T12:38:53Z</time>
      </trkpt>
      <trkpt lat="43.52161" lon="6.40953">
        <ele>213.7</ele>
        <time>2015-10-07T12:39:01Z</time>
      </trkpt>
      <trkpt lat="43.5216" lon="6.40953">
        <ele>213.7</ele>
        <time>2015-10-07T12:39:02Z</time>
      </trkpt>
      <trkpt lat="43.52145" lon="6.40957">
        <ele>212.7</ele>
        <time>2015-10-07T12:39:21Z</time>
      </trkpt>
      <trkpt lat="43.52136" lon="6.40958">
        <ele>213.2</ele>
        <time>2015-10-07T12:39:32Z</time>
      </trkpt>
      <trkpt lat="43.52129" lon="6.40959">
        <ele>213.3</ele>
        <time>2015-10-07T12:39:38Z</time>
      </trkpt>
      <trkpt lat="43.52121" lon="6.40961">
        <ele>212.7</ele>
        <time>2015-10-07T12:39:47Z</time>
      </trkpt>
      <trkpt lat="43.52113" lon="6.40966">
        <ele>213.4</ele>
        <time>2015-10-07T12:39:55Z</time>
      </trkpt>
      <trkpt lat="43.52105" lon="6.40967">
        <ele>213.4</ele>
        <time>2015-10-07T12:40:02Z</time>
      </trkpt>
      <trkpt lat="43.52103" lon="6.40968">
        <ele>213.7</ele>
        <time>2015-10-07T12:40:03Z</time>
      </trkpt>
      <trkpt lat="43.52089" lon="6.40976">
        <ele>214.7</ele>
        <time>2015-10-07T12:40:19Z</time>
      </trkpt>
      <trkpt lat="43.52081" lon="6.4098">
        <ele>215.6</ele>
        <time>2015-10-07T12:40:29Z</time>
      </trkpt>
      <trkpt lat="43.52073" lon="6.40982">
        <ele>215.6</ele>
        <time>2015-10-07T12:40:38Z</time>
      </trkpt>
      <trkpt lat="43.52066" lon="6.4099">
        <ele>216.2</ele>
        <time>2015-10-07T12:40:48Z</time>
      </trkpt>
      <trkpt lat="43.52062" lon="6.41001">
        <ele>216.1</ele>
        <time>2015-10-07T12:40:56Z</time>
      </trkpt>
      <trkpt lat="43.52053" lon="6.40998">
        <ele>217.2</ele>
        <time>2015-10-07T12:41:27Z</time>
      </trkpt>
      <trkpt lat="43.52053" lon="6.40996">
        <ele>217.3</ele>
        <time>2015-10-07T12:41:28Z</time>
      </trkpt>
      <trkpt lat="43.52051" lon="6.40975">
        <ele>218.9</ele>
        <time>2015-10-07T12:41:43Z</time>
      </trkpt>
      <trkpt lat="43.52048" lon="6.40965">
        <ele>219.2</ele>
        <time>2015-10-07T12:41:51Z</time>
      </trkpt>
      <trkpt lat="43.52043" lon="6.40956">
        <ele>219.1</ele>
        <time>2015-10-07T12:41:57Z</time>
      </trkpt>
      <trkpt lat="43.52042" lon="6.40944">
        <ele>219.5</ele>
        <time>2015-10-07T12:42:03Z</time>
      </trkpt>
      <trkpt lat="43.52038" lon="6.40934">
        <ele>219.9</ele>
        <time>2015-10-07T12:42:09Z</time>
      </trkpt>
      <trkpt lat="43.52032" lon="6.40925">
        <ele>220.5</ele>
        <time>2015-10-07T12:42:16Z</time>
      </trkpt>
      <trkpt lat="43.52027" lon="6.40915">
        <ele>220.3</ele>
        <time>2015-10-07T12:42:28Z</time>
      </trkpt>
      <trkpt lat="43.52027" lon="6.40915">
        <ele>220.4</ele>
        <time>2015-10-07T12:42:29Z</time>
      </trkpt>
      <trkpt lat="43.52013" lon="6.40903">
        <ele>223</ele>
        <time>2015-10-07T12:42:53Z</time>
      </trkpt>
      <trkpt lat="43.52004" lon="6.40899">
        <ele>223.7</ele>
        <time>2015-10-07T12:43:01Z</time>
      </trkpt>
      <trkpt lat="43.51997" lon="6.40893">
        <ele>224.6</ele>
        <time>2015-10-07T12:43:11Z</time>
      </trkpt>
      <trkpt lat="43.51989" lon="6.40889">
        <ele>225.1</ele>
        <time>2015-10-07T12:43:19Z</time>
      </trkpt>
      <trkpt lat="43.51982" lon="6.40885">
        <ele>225.3</ele>
        <time>2015-10-07T12:43:29Z</time>
      </trkpt>
      <trkpt lat="43.51981" lon="6.40884">
        <ele>225.3</ele>
        <time>2015-10-07T12:43:30Z</time>
      </trkpt>
      <trkpt lat="43.51967" lon="6.40877">
        <ele>227.3</ele>
        <time>2015-10-07T12:43:48Z</time>
      </trkpt>
      <trkpt lat="43.51958" lon="6.40875">
        <ele>227.8</ele>
        <time>2015-10-07T12:43:58Z</time>
      </trkpt>
      <trkpt lat="43.51949" lon="6.40874">
        <ele>228.2</ele>
        <time>2015-10-07T12:44:06Z</time>
      </trkpt>
      <trkpt lat="43.51942" lon="6.40879">
        <ele>228.1</ele>
        <time>2015-10-07T12:44:27Z</time>
      </trkpt>
      <trkpt lat="43.51933" lon="6.40883">
        <ele>228.6</ele>
        <time>2015-10-07T12:44:40Z</time>
      </trkpt>
      <trkpt lat="43.51932" lon="6.40883">
        <ele>228.8</ele>
        <time>2015-10-07T12:44:41Z</time>
      </trkpt>
      <trkpt lat="43.51917" lon="6.40888">
        <ele>231.5</ele>
        <time>2015-10-07T12:44:59Z</time>
      </trkpt>
      <trkpt lat="43.5191" lon="6.40893">
        <ele>231.9</ele>
        <time>2015-10-07T12:45:07Z</time>
      </trkpt>
      <trkpt lat="43.51902" lon="6.4089">
        <ele>232.1</ele>
        <time>2015-10-07T12:45:18Z</time>
      </trkpt>
      <trkpt lat="43.51895" lon="6.40884">
        <ele>233</ele>
        <time>2015-10-07T12:45:27Z</time>
      </trkpt>
      <trkpt lat="43.51887" lon="6.4088">
        <ele>232.8</ele>
        <time>2015-10-07T12:45:37Z</time>
      </trkpt>
      <trkpt lat="43.51879" lon="6.40877">
        <ele>234.2</ele>
        <time>2015-10-07T12:45:44Z</time>
      </trkpt>
      <trkpt lat="43.51878" lon="6.40877">
        <ele>234.4</ele>
        <time>2015-10-07T12:45:45Z</time>
      </trkpt>
      <trkpt lat="43.51862" lon="6.40876">
        <ele>235.1</ele>
        <time>2015-10-07T12:45:58Z</time>
      </trkpt>
      <trkpt lat="43.51854" lon="6.40879">
        <ele>234.9</ele>
        <time>2015-10-07T12:46:06Z</time>
      </trkpt>
      <trkpt lat="43.51846" lon="6.40881">
        <ele>235</ele>
        <time>2015-10-07T12:46:14Z</time>
      </trkpt>
      <trkpt lat="43.51837" lon="6.40884">
        <ele>236</ele>
        <time>2015-10-07T12:46:21Z</time>
      </trkpt>
      <trkpt lat="43.51829" lon="6.40889">
        <ele>236.1</ele>
        <time>2015-10-07T12:46:29Z</time>
      </trkpt>
      <trkpt lat="43.51821" lon="6.40887">
        <ele>236.6</ele>
        <time>2015-10-07T12:46:39Z</time>
      </trkpt>
      <trkpt lat="43.51813" lon="6.40887">
        <ele>236.7</ele>
        <time>2015-10-07T12:46:46Z</time>
      </trkpt>
      <trkpt lat="43.51812" lon="6.40888">
        <ele>236.6</ele>
        <time>2015-10-07T12:46:47Z</time>
      </trkpt>
      <trkpt lat="43.51797" lon="6.40893">
        <ele>238.3</ele>
        <time>2015-10-07T12:47:02Z</time>
      </trkpt>
      <trkpt lat="43.51789" lon="6.40896">
        <ele>239.2</ele>
        <time>2015-10-07T12:47:10Z</time>
      </trkpt>
      <trkpt lat="43.51781" lon="6.409">
        <ele>239.3</ele>
        <time>2015-10-07T12:47:19Z</time>
      </trkpt>
      <trkpt lat="43.51773" lon="6.40902">
        <ele>239.1</ele>
        <time>2015-10-07T12:47:25Z</time>
      </trkpt>
      <trkpt lat="43.51765" lon="6.40908">
        <ele>239.9</ele>
        <time>2015-10-07T12:47:34Z</time>
      </trkpt>
      <trkpt lat="43.51759" lon="6.40915">
        <ele>240.3</ele>
        <time>2015-10-07T12:47:44Z</time>
      </trkpt>
      <trkpt lat="43.51753" lon="6.40924">
        <ele>241.3</ele>
        <time>2015-10-07T12:47:53Z</time>
      </trkpt>
      <trkpt lat="43.51753" lon="6.40925">
        <ele>241.3</ele>
        <time>2015-10-07T12:47:54Z</time>
      </trkpt>
      <trkpt lat="43.5174" lon="6.4094">
        <ele>242.5</ele>
        <time>2015-10-07T12:48:12Z</time>
      </trkpt>
      <trkpt lat="43.51734" lon="6.40947">
        <ele>242.7</ele>
        <time>2015-10-07T12:48:21Z</time>
      </trkpt>
      <trkpt lat="43.51727" lon="6.40954">
        <ele>243.2</ele>
        <time>2015-10-07T12:48:29Z</time>
      </trkpt>
      <trkpt lat="43.51721" lon="6.40963">
        <ele>243.4</ele>
        <time>2015-10-07T12:48:37Z</time>
      </trkpt>
      <trkpt lat="43.51715" lon="6.4097">
        <ele>244.1</ele>
        <time>2015-10-07T12:48:45Z</time>
      </trkpt>
      <trkpt lat="43.51709" lon="6.40978">
        <ele>244.9</ele>
        <time>2015-10-07T12:48:53Z</time>
      </trkpt>
      <trkpt lat="43.51702" lon="6.40984">
        <ele>245.6</ele>
        <time>2015-10-07T12:49:04Z</time>
      </trkpt>
      <trkpt lat="43.51701" lon="6.40984">
        <ele>245.4</ele>
        <time>2015-10-07T12:49:05Z</time>
      </trkpt>
      <trkpt lat="43.5169" lon="6.40998">
        <ele>247.2</ele>
        <time>2015-10-07T12:49:23Z</time>
      </trkpt>
      <trkpt lat="43.51683" lon="6.41006">
        <ele>247.6</ele>
        <time>2015-10-07T12:49:32Z</time>
      </trkpt>
      <trkpt lat="43.51675" lon="6.41009">
        <ele>248.4</ele>
        <time>2015-10-07T12:49:41Z</time>
      </trkpt>
      <trkpt lat="43.51668" lon="6.41014">
        <ele>248.4</ele>
        <time>2015-10-07T12:49:48Z</time>
      </trkpt>
      <trkpt lat="43.5166" lon="6.41019">
        <ele>249.2</ele>
        <time>2015-10-07T12:49:57Z</time>
      </trkpt>
      <trkpt lat="43.51652" lon="6.41023">
        <ele>250.1</ele>
        <time>2015-10-07T12:50:07Z</time>
      </trkpt>
      <trkpt lat="43.5165" lon="6.41023">
        <ele>250.2</ele>
        <time>2015-10-07T12:50:08Z</time>
      </trkpt>
      <trkpt lat="43.51634" lon="6.41029">
        <ele>249.2</ele>
        <time>2015-10-07T12:50:23Z</time>
      </trkpt>
      <trkpt lat="43.51626" lon="6.41031">
        <ele>249.9</ele>
        <time>2015-10-07T12:50:34Z</time>
      </trkpt>
      <trkpt lat="43.51618" lon="6.41031">
        <ele>250.2</ele>
        <time>2015-10-07T12:50:41Z</time>
      </trkpt>
      <trkpt lat="43.5161" lon="6.41035">
        <ele>251.4</ele>
        <time>2015-10-07T12:50:48Z</time>
      </trkpt>
      <trkpt lat="43.51604" lon="6.41044">
        <ele>252.7</ele>
        <time>2015-10-07T12:50:55Z</time>
      </trkpt>
      <trkpt lat="43.51599" lon="6.41053">
        <ele>252.2</ele>
        <time>2015-10-07T12:51:02Z</time>
      </trkpt>
      <trkpt lat="43.51593" lon="6.41061">
        <ele>252.9</ele>
        <time>2015-10-07T12:51:09Z</time>
      </trkpt>
      <trkpt lat="43.51592" lon="6.41062">
        <ele>252.5</ele>
        <time>2015-10-07T12:51:10Z</time>
      </trkpt>
      <trkpt lat="43.5158" lon="6.41075">
        <ele>252.9</ele>
        <time>2015-10-07T12:51:26Z</time>
      </trkpt>
      <trkpt lat="43.51573" lon="6.4108">
        <ele>253.1</ele>
        <time>2015-10-07T12:51:33Z</time>
      </trkpt>
      <trkpt lat="43.51566" lon="6.41087">
        <ele>252.8</ele>
        <time>2015-10-07T12:51:42Z</time>
      </trkpt>
      <trkpt lat="43.5156" lon="6.41095">
        <ele>253.7</ele>
        <time>2015-10-07T12:51:51Z</time>
      </trkpt>
      <trkpt lat="43.51553" lon="6.41104">
        <ele>255.1</ele>
        <time>2015-10-07T12:52:01Z</time>
      </trkpt>
      <trkpt lat="43.51546" lon="6.4111">
        <ele>255</ele>
        <time>2015-10-07T12:52:11Z</time>
      </trkpt>
      <trkpt lat="43.51545" lon="6.41111">
        <ele>255.3</ele>
        <time>2015-10-07T12:52:12Z</time>
      </trkpt>
      <trkpt lat="43.51536" lon="6.41128">
        <ele>256.4</ele>
        <time>2015-10-07T12:52:27Z</time>
      </trkpt>
      <trkpt lat="43.51531" lon="6.41136">
        <ele>257.1</ele>
        <time>2015-10-07T12:52:34Z</time>
      </trkpt>
      <trkpt lat="43.51523" lon="6.41142">
        <ele>257.2</ele>
        <time>2015-10-07T12:52:41Z</time>
      </trkpt>
      <trkpt lat="43.51517" lon="6.4115">
        <ele>257.4</ele>
        <time>2015-10-07T12:52:50Z</time>
      </trkpt>
      <trkpt lat="43.5151" lon="6.41158">
        <ele>257.6</ele>
        <time>2015-10-07T12:52:58Z</time>
      </trkpt>
      <trkpt lat="43.51506" lon="6.41169">
        <ele>258.7</ele>
        <time>2015-10-07T12:53:07Z</time>
      </trkpt>
      <trkpt lat="43.51502" lon="6.41179">
        <ele>258.8</ele>
        <time>2015-10-07T12:53:16Z</time>
      </trkpt>
      <trkpt lat="43.51502" lon="6.4118">
        <ele>259.2</ele>
        <time>2015-10-07T12:53:17Z</time>
      </trkpt>
      <trkpt lat="43.515" lon="6.41202">
        <ele>257.9</ele>
        <time>2015-10-07T12:55:10Z</time>
      </trkpt>
      <trkpt lat="43.515" lon="6.41202">
        <ele>257.9</ele>
        <time>2015-10-07T12:55:11Z</time>
      </trkpt>
      <trkpt lat="43.51501" lon="6.41207">
        <ele>258.3</ele>
        <time>2015-10-07T13:00:33Z</time>
      </trkpt>
      <trkpt lat="43.51501" lon="6.41207">
        <ele>258.1</ele>
        <time>2015-10-07T13:00:34Z</time>
      </trkpt>
      <trkpt lat="43.51484" lon="6.41205">
        <ele>257.6</ele>
        <time>2015-10-07T13:01:11Z</time>
      </trkpt>
      <trkpt lat="43.51475" lon="6.41206">
        <ele>258.5</ele>
        <time>2015-10-07T13:01:20Z</time>
      </trkpt>
      <trkpt lat="43.51467" lon="6.41206">
        <ele>258.1</ele>
        <time>2015-10-07T13:01:30Z</time>
      </trkpt>
      <trkpt lat="43.51461" lon="6.41197">
        <ele>257.1</ele>
        <time>2015-10-07T13:01:46Z</time>
      </trkpt>
      <trkpt lat="43.51461" lon="6.41196">
        <ele>256.9</ele>
        <time>2015-10-07T13:01:47Z</time>
      </trkpt>
      <trkpt lat="43.51451" lon="6.41178">
        <ele>257.8</ele>
        <time>2015-10-07T13:02:09Z</time>
      </trkpt>
      <trkpt lat="43.51444" lon="6.4117">
        <ele>258.4</ele>
        <time>2015-10-07T13:02:17Z</time>
      </trkpt>
      <trkpt lat="43.51438" lon="6.41163">
        <ele>258.3</ele>
        <time>2015-10-07T13:02:25Z</time>
      </trkpt>
      <trkpt lat="43.51431" lon="6.41156">
        <ele>258.4</ele>
        <time>2015-10-07T13:02:34Z</time>
      </trkpt>
      <trkpt lat="43.51426" lon="6.41148">
        <ele>259.6</ele>
        <time>2015-10-07T13:02:44Z</time>
      </trkpt>
      <trkpt lat="43.51419" lon="6.41139">
        <ele>259.7</ele>
        <time>2015-10-07T13:02:54Z</time>
      </trkpt>
      <trkpt lat="43.51418" lon="6.41138">
        <ele>259.8</ele>
        <time>2015-10-07T13:02:55Z</time>
      </trkpt>
      <trkpt lat="43.51408" lon="6.41124">
        <ele>260.7</ele>
        <time>2015-10-07T13:03:10Z</time>
      </trkpt>
      <trkpt lat="43.51402" lon="6.41115">
        <ele>261.4</ele>
        <time>2015-10-07T13:03:19Z</time>
      </trkpt>
      <trkpt lat="43.51395" lon="6.4111">
        <ele>261.7</ele>
        <time>2015-10-07T13:03:26Z</time>
      </trkpt>
      <trkpt lat="43.51388" lon="6.41103">
        <ele>262.9</ele>
        <time>2015-10-07T13:03:36Z</time>
      </trkpt>
      <trkpt lat="43.51381" lon="6.41097">
        <ele>263.9</ele>
        <time>2015-10-07T13:03:45Z</time>
      </trkpt>
      <trkpt lat="43.51374" lon="6.41089">
        <ele>264.4</ele>
        <time>2015-10-07T13:03:52Z</time>
      </trkpt>
      <trkpt lat="43.51367" lon="6.41084">
        <ele>263.8</ele>
        <time>2015-10-07T13:04:00Z</time>
      </trkpt>
      <trkpt lat="43.51366" lon="6.41084">
        <ele>263.9</ele>
        <time>2015-10-07T13:04:01Z</time>
      </trkpt>
      <trkpt lat="43.51351" lon="6.41074">
        <ele>263.6</ele>
        <time>2015-10-07T13:04:15Z</time>
      </trkpt>
      <trkpt lat="43.51342" lon="6.41074">
        <ele>264.1</ele>
        <time>2015-10-07T13:04:22Z</time>
      </trkpt>
      <trkpt lat="43.51334" lon="6.41075">
        <ele>264.2</ele>
        <time>2015-10-07T13:04:28Z</time>
      </trkpt>
      <trkpt lat="43.51327" lon="6.41076">
        <ele>264.1</ele>
        <time>2015-10-07T13:04:34Z</time>
      </trkpt>
      <trkpt lat="43.51318" lon="6.41072">
        <ele>263.2</ele>
        <time>2015-10-07T13:04:46Z</time>
      </trkpt>
      <trkpt lat="43.5131" lon="6.41073">
        <ele>264.1</ele>
        <time>2015-10-07T13:04:53Z</time>
      </trkpt>
      <trkpt lat="43.51301" lon="6.41075">
        <ele>264.1</ele>
        <time>2015-10-07T13:04:58Z</time>
      </trkpt>
      <trkpt lat="43.51293" lon="6.41077">
        <ele>264.1</ele>
        <time>2015-10-07T13:05:05Z</time>
      </trkpt>
      <trkpt lat="43.51292" lon="6.41077">
        <ele>264.2</ele>
        <time>2015-10-07T13:05:06Z</time>
      </trkpt>
      <trkpt lat="43.51278" lon="6.41085">
        <ele>264.5</ele>
        <time>2015-10-07T13:05:19Z</time>
      </trkpt>
      <trkpt lat="43.5127" lon="6.41089">
        <ele>264.8</ele>
        <time>2015-10-07T13:05:26Z</time>
      </trkpt>
      <trkpt lat="43.51263" lon="6.41093">
        <ele>263.8</ele>
        <time>2015-10-07T13:05:35Z</time>
      </trkpt>
      <trkpt lat="43.51255" lon="6.41097">
        <ele>263.3</ele>
        <time>2015-10-07T13:05:41Z</time>
      </trkpt>
      <trkpt lat="43.51247" lon="6.41101">
        <ele>264</ele>
        <time>2015-10-07T13:05:49Z</time>
      </trkpt>
      <trkpt lat="43.51238" lon="6.41101">
        <ele>263.8</ele>
        <time>2015-10-07T13:05:56Z</time>
      </trkpt>
      <trkpt lat="43.5123" lon="6.41106">
        <ele>263.2</ele>
        <time>2015-10-07T13:06:05Z</time>
      </trkpt>
      <trkpt lat="43.51223" lon="6.4111">
        <ele>262.2</ele>
        <time>2015-10-07T13:06:11Z</time>
      </trkpt>
      <trkpt lat="43.51222" lon="6.41111">
        <ele>262.1</ele>
        <time>2015-10-07T13:06:12Z</time>
      </trkpt>
      <trkpt lat="43.51207" lon="6.41118">
        <ele>262.6</ele>
        <time>2015-10-07T13:06:29Z</time>
      </trkpt>
      <trkpt lat="43.51198" lon="6.41118">
        <ele>261.9</ele>
        <time>2015-10-07T13:06:38Z</time>
      </trkpt>
      <trkpt lat="43.5119" lon="6.41123">
        <ele>262.3</ele>
        <time>2015-10-07T13:06:44Z</time>
      </trkpt>
      <trkpt lat="43.51182" lon="6.41126">
        <ele>262.5</ele>
        <time>2015-10-07T13:06:51Z</time>
      </trkpt>
      <trkpt lat="43.51174" lon="6.41128">
        <ele>262.8</ele>
        <time>2015-10-07T13:06:59Z</time>
      </trkpt>
      <trkpt lat="43.51166" lon="6.41129">
        <ele>262.5</ele>
        <time>2015-10-07T13:07:10Z</time>
      </trkpt>
      <trkpt lat="43.51157" lon="6.41125">
        <ele>262.4</ele>
        <time>2015-10-07T13:07:15Z</time>
      </trkpt>
      <trkpt lat="43.51157" lon="6.41124">
        <ele>262.5</ele>
        <time>2015-10-07T13:07:16Z</time>
      </trkpt>
      <trkpt lat="43.51142" lon="6.41117">
        <ele>262.2</ele>
        <time>2015-10-07T13:07:32Z</time>
      </trkpt>
      <trkpt lat="43.51134" lon="6.41123">
        <ele>263.4</ele>
        <time>2015-10-07T13:07:40Z</time>
      </trkpt>
      <trkpt lat="43.51128" lon="6.41131">
        <ele>263.7</ele>
        <time>2015-10-07T13:07:47Z</time>
      </trkpt>
      <trkpt lat="43.51122" lon="6.41139">
        <ele>264</ele>
        <time>2015-10-07T13:07:54Z</time>
      </trkpt>
      <trkpt lat="43.51114" lon="6.41145">
        <ele>264.5</ele>
        <time>2015-10-07T13:08:03Z</time>
      </trkpt>
      <trkpt lat="43.51107" lon="6.41152">
        <ele>265.4</ele>
        <time>2015-10-07T13:08:10Z</time>
      </trkpt>
      <trkpt lat="43.51101" lon="6.41159">
        <ele>265.9</ele>
        <time>2015-10-07T13:08:18Z</time>
      </trkpt>
      <trkpt lat="43.511" lon="6.41159">
        <ele>265.9</ele>
        <time>2015-10-07T13:08:19Z</time>
      </trkpt>
      <trkpt lat="43.51088" lon="6.41174">
        <ele>266.7</ele>
        <time>2015-10-07T13:08:37Z</time>
      </trkpt>
      <trkpt lat="43.51082" lon="6.41182">
        <ele>266.9</ele>
        <time>2015-10-07T13:08:44Z</time>
      </trkpt>
      <trkpt lat="43.51074" lon="6.41188">
        <ele>267.4</ele>
        <time>2015-10-07T13:08:51Z</time>
      </trkpt>
      <trkpt lat="43.51066" lon="6.41191">
        <ele>267.8</ele>
        <time>2015-10-07T13:09:00Z</time>
      </trkpt>
      <trkpt lat="43.51058" lon="6.41196">
        <ele>268.8</ele>
        <time>2015-10-07T13:09:08Z</time>
      </trkpt>
      <trkpt lat="43.5105" lon="6.41199">
        <ele>268.6</ele>
        <time>2015-10-07T13:09:15Z</time>
      </trkpt>
      <trkpt lat="43.51043" lon="6.41204">
        <ele>270</ele>
        <time>2015-10-07T13:09:22Z</time>
      </trkpt>
      <trkpt lat="43.51042" lon="6.41205">
        <ele>269.9</ele>
        <time>2015-10-07T13:09:23Z</time>
      </trkpt>
      <trkpt lat="43.51026" lon="6.41212">
        <ele>270.7</ele>
        <time>2015-10-07T13:09:38Z</time>
      </trkpt>
      <trkpt lat="43.5102" lon="6.4122">
        <ele>270.5</ele>
        <time>2015-10-07T13:09:46Z</time>
      </trkpt>
      <trkpt lat="43.51013" lon="6.41227">
        <ele>271.9</ele>
        <time>2015-10-07T13:09:54Z</time>
      </trkpt>
      <trkpt lat="43.51005" lon="6.41232">
        <ele>272.5</ele>
        <time>2015-10-07T13:10:02Z</time>
      </trkpt>
      <trkpt lat="43.50998" lon="6.41237">
        <ele>272.8</ele>
        <time>2015-10-07T13:10:10Z</time>
      </trkpt>
      <trkpt lat="43.5099" lon="6.41238">
        <ele>273.7</ele>
        <time>2015-10-07T13:10:17Z</time>
      </trkpt>
      <trkpt lat="43.50983" lon="6.41242">
        <ele>274.1</ele>
        <time>2015-10-07T13:10:23Z</time>
      </trkpt>
      <trkpt lat="43.50981" lon="6.41243">
        <ele>273.8</ele>
        <time>2015-10-07T13:10:24Z</time>
      </trkpt>
      <trkpt lat="43.50968" lon="6.41253">
        <ele>273.3</ele>
        <time>2015-10-07T13:10:36Z</time>
      </trkpt>
      <trkpt lat="43.5096" lon="6.41259">
        <ele>273.3</ele>
        <time>2015-10-07T13:10:44Z</time>
      </trkpt>
      <trkpt lat="43.50953" lon="6.41266">
        <ele>273.2</ele>
        <time>2015-10-07T13:10:50Z</time>
      </trkpt>
      <trkpt lat="43.50947" lon="6.41273">
        <ele>273.3</ele>
        <time>2015-10-07T13:10:57Z</time>
      </trkpt>
      <trkpt lat="43.50941" lon="6.4128">
        <ele>272.7</ele>
        <time>2015-10-07T13:11:04Z</time>
      </trkpt>
      <trkpt lat="43.50935" lon="6.41289">
        <ele>272.4</ele>
        <time>2015-10-07T13:11:13Z</time>
      </trkpt>
      <trkpt lat="43.5093" lon="6.41298">
        <ele>271.1</ele>
        <time>2015-10-07T13:11:21Z</time>
      </trkpt>
      <trkpt lat="43.50924" lon="6.41305">
        <ele>270.8</ele>
        <time>2015-10-07T13:11:28Z</time>
      </trkpt>
      <trkpt lat="43.50922" lon="6.41307">
        <ele>270.9</ele>
        <time>2015-10-07T13:11:29Z</time>
      </trkpt>
      <trkpt lat="43.50911" lon="6.4132">
        <ele>270.7</ele>
        <time>2015-10-07T13:11:41Z</time>
      </trkpt>
      <trkpt lat="43.50906" lon="6.41328">
        <ele>270</ele>
        <time>2015-10-07T13:11:48Z</time>
      </trkpt>
      <trkpt lat="43.50901" lon="6.41338">
        <ele>269.2</ele>
        <time>2015-10-07T13:11:55Z</time>
      </trkpt>
      <trkpt lat="43.50897" lon="6.41348">
        <ele>268.8</ele>
        <time>2015-10-07T13:12:03Z</time>
      </trkpt>
      <trkpt lat="43.5089" lon="6.41356">
        <ele>267.9</ele>
        <time>2015-10-07T13:12:10Z</time>
      </trkpt>
      <trkpt lat="43.50884" lon="6.41362">
        <ele>267.3</ele>
        <time>2015-10-07T13:12:17Z</time>
      </trkpt>
      <trkpt lat="43.50879" lon="6.41371">
        <ele>267.2</ele>
        <time>2015-10-07T13:12:24Z</time>
      </trkpt>
      <trkpt lat="43.50874" lon="6.4138">
        <ele>266.3</ele>
        <time>2015-10-07T13:12:33Z</time>
      </trkpt>
      <trkpt lat="43.50874" lon="6.41381">
        <ele>266.3</ele>
        <time>2015-10-07T13:12:34Z</time>
      </trkpt>
      <trkpt lat="43.50867" lon="6.41401">
        <ele>265.1</ele>
        <time>2015-10-07T13:12:49Z</time>
      </trkpt>
      <trkpt lat="43.50861" lon="6.41409">
        <ele>264.8</ele>
        <time>2015-10-07T13:12:57Z</time>
      </trkpt>
      <trkpt lat="43.50856" lon="6.41419">
        <ele>264.8</ele>
        <time>2015-10-07T13:13:05Z</time>
      </trkpt>
      <trkpt lat="43.50851" lon="6.41428">
        <ele>264.8</ele>
        <time>2015-10-07T13:13:13Z</time>
      </trkpt>
      <trkpt lat="43.50847" lon="6.41438">
        <ele>264.7</ele>
        <time>2015-10-07T13:13:20Z</time>
      </trkpt>
      <trkpt lat="43.50841" lon="6.41446">
        <ele>264.7</ele>
        <time>2015-10-07T13:13:28Z</time>
      </trkpt>
      <trkpt lat="43.50834" lon="6.41455">
        <ele>264.4</ele>
        <time>2015-10-07T13:13:35Z</time>
      </trkpt>
      <trkpt lat="43.50833" lon="6.41456">
        <ele>264.4</ele>
        <time>2015-10-07T13:13:36Z</time>
      </trkpt>
      <trkpt lat="43.50822" lon="6.41471">
        <ele>265.3</ele>
        <time>2015-10-07T13:18:33Z</time>
      </trkpt>
      <trkpt lat="43.50822" lon="6.41471">
        <ele>265.2</ele>
        <time>2015-10-07T13:18:34Z</time>
      </trkpt>
      <trkpt lat="43.50812" lon="6.41485">
        <ele>264.5</ele>
        <time>2015-10-07T13:19:06Z</time>
      </trkpt>
      <trkpt lat="43.50804" lon="6.41484">
        <ele>263.5</ele>
        <time>2015-10-07T13:19:21Z</time>
      </trkpt>
      <trkpt lat="43.50796" lon="6.41489">
        <ele>263.6</ele>
        <time>2015-10-07T13:19:28Z</time>
      </trkpt>
      <trkpt lat="43.50788" lon="6.41494">
        <ele>263.8</ele>
        <time>2015-10-07T13:19:37Z</time>
      </trkpt>
      <trkpt lat="43.50788" lon="6.41494">
        <ele>263.7</ele>
        <time>2015-10-07T13:19:38Z</time>
      </trkpt>
      <trkpt lat="43.50774" lon="6.41505">
        <ele>264.5</ele>
        <time>2015-10-07T13:19:55Z</time>
      </trkpt>
      <trkpt lat="43.50767" lon="6.41512">
        <ele>264</ele>
        <time>2015-10-07T13:20:04Z</time>
      </trkpt>
      <trkpt lat="43.50759" lon="6.41513">
        <ele>263.1</ele>
        <time>2015-10-07T13:20:14Z</time>
      </trkpt>
      <trkpt lat="43.50751" lon="6.41518">
        <ele>262.6</ele>
        <time>2015-10-07T13:20:22Z</time>
      </trkpt>
      <trkpt lat="43.50744" lon="6.41525">
        <ele>262</ele>
        <time>2015-10-07T13:20:29Z</time>
      </trkpt>
      <trkpt lat="43.50736" lon="6.41528">
        <ele>261.8</ele>
        <time>2015-10-07T13:20:37Z</time>
      </trkpt>
      <trkpt lat="43.5073" lon="6.41536">
        <ele>261.2</ele>
        <time>2015-10-07T13:20:46Z</time>
      </trkpt>
      <trkpt lat="43.5073" lon="6.41537">
        <ele>261.1</ele>
        <time>2015-10-07T13:20:47Z</time>
      </trkpt>
      <trkpt lat="43.50716" lon="6.41546">
        <ele>261.5</ele>
        <time>2015-10-07T13:21:01Z</time>
      </trkpt>
      <trkpt lat="43.5071" lon="6.41555">
        <ele>261.4</ele>
        <time>2015-10-07T13:21:08Z</time>
      </trkpt>
      <trkpt lat="43.50704" lon="6.41563">
        <ele>260.8</ele>
        <time>2015-10-07T13:21:19Z</time>
      </trkpt>
      <trkpt lat="43.507" lon="6.41573">
        <ele>261.3</ele>
        <time>2015-10-07T13:21:26Z</time>
      </trkpt>
      <trkpt lat="43.50696" lon="6.41582">
        <ele>261.7</ele>
        <time>2015-10-07T13:21:31Z</time>
      </trkpt>
      <trkpt lat="43.50691" lon="6.41591">
        <ele>261.8</ele>
        <time>2015-10-07T13:21:38Z</time>
      </trkpt>
      <trkpt lat="43.50686" lon="6.416">
        <ele>262.1</ele>
        <time>2015-10-07T13:21:45Z</time>
      </trkpt>
      <trkpt lat="43.50681" lon="6.4161">
        <ele>261.9</ele>
        <time>2015-10-07T13:21:53Z</time>
      </trkpt>
      <trkpt lat="43.50681" lon="6.41611">
        <ele>261.9</ele>
        <time>2015-10-07T13:21:54Z</time>
      </trkpt>
      <trkpt lat="43.50673" lon="6.4163">
        <ele>261</ele>
        <time>2015-10-07T13:22:09Z</time>
      </trkpt>
      <trkpt lat="43.50668" lon="6.41639">
        <ele>260.9</ele>
        <time>2015-10-07T13:22:17Z</time>
      </trkpt>
      <trkpt lat="43.50663" lon="6.41648">
        <ele>260.6</ele>
        <time>2015-10-07T13:22:24Z</time>
      </trkpt>
      <trkpt lat="43.50659" lon="6.41658">
        <ele>260.5</ele>
        <time>2015-10-07T13:22:31Z</time>
      </trkpt>
      <trkpt lat="43.50654" lon="6.41668">
        <ele>260.1</ele>
        <time>2015-10-07T13:22:39Z</time>
      </trkpt>
      <trkpt lat="43.5065" lon="6.41678">
        <ele>260.6</ele>
        <time>2015-10-07T13:22:45Z</time>
      </trkpt>
      <trkpt lat="43.50648" lon="6.4169">
        <ele>260.4</ele>
        <time>2015-10-07T13:22:52Z</time>
      </trkpt>
      <trkpt lat="43.50645" lon="6.41701">
        <ele>260.8</ele>
        <time>2015-10-07T13:22:58Z</time>
      </trkpt>
      <trkpt lat="43.50645" lon="6.41702">
        <ele>260.7</ele>
        <time>2015-10-07T13:22:59Z</time>
      </trkpt>
      <trkpt lat="43.50641" lon="6.41723">
        <ele>260.1</ele>
        <time>2015-10-07T13:23:14Z</time>
      </trkpt>
      <trkpt lat="43.50638" lon="6.41734">
        <ele>259.5</ele>
        <time>2015-10-07T13:23:21Z</time>
      </trkpt>
      <trkpt lat="43.50634" lon="6.41744">
        <ele>258.6</ele>
        <time>2015-10-07T13:23:30Z</time>
      </trkpt>
      <trkpt lat="43.5063" lon="6.41754">
        <ele>258.1</ele>
        <time>2015-10-07T13:23:40Z</time>
      </trkpt>
      <trkpt lat="43.50625" lon="6.41763">
        <ele>256.9</ele>
        <time>2015-10-07T13:23:47Z</time>
      </trkpt>
      <trkpt lat="43.50622" lon="6.41774">
        <ele>256.1</ele>
        <time>2015-10-07T13:23:54Z</time>
      </trkpt>
      <trkpt lat="43.50618" lon="6.41785">
        <ele>256</ele>
        <time>2015-10-07T13:24:02Z</time>
      </trkpt>
      <trkpt lat="43.50616" lon="6.41786">
        <ele>255.8</ele>
        <time>2015-10-07T13:24:03Z</time>
      </trkpt>
      <trkpt lat="43.50608" lon="6.41801">
        <ele>253.7</ele>
        <time>2015-10-07T13:24:15Z</time>
      </trkpt>
      <trkpt lat="43.50601" lon="6.41809">
        <ele>254</ele>
        <time>2015-10-07T13:24:22Z</time>
      </trkpt>
      <trkpt lat="43.50594" lon="6.41817">
        <ele>254.1</ele>
        <time>2015-10-07T13:24:30Z</time>
      </trkpt>
      <trkpt lat="43.5059" lon="6.41826">
        <ele>253.1</ele>
        <time>2015-10-07T13:24:37Z</time>
      </trkpt>
      <trkpt lat="43.50584" lon="6.41834">
        <ele>251.7</ele>
        <time>2015-10-07T13:24:44Z</time>
      </trkpt>
      <trkpt lat="43.50578" lon="6.41844">
        <ele>251.9</ele>
        <time>2015-10-07T13:24:52Z</time>
      </trkpt>
      <trkpt lat="43.50573" lon="6.41852">
        <ele>251.8</ele>
        <time>2015-10-07T13:24:59Z</time>
      </trkpt>
      <trkpt lat="43.50566" lon="6.4186">
        <ele>251</ele>
        <time>2015-10-07T13:25:11Z</time>
      </trkpt>
      <trkpt lat="43.50566" lon="6.41861">
        <ele>251.1</ele>
        <time>2015-10-07T13:25:12Z</time>
      </trkpt>
      <trkpt lat="43.50556" lon="6.41878">
        <ele>250.2</ele>
        <time>2015-10-07T13:25:24Z</time>
      </trkpt>
      <trkpt lat="43.50554" lon="6.4189">
        <ele>250.3</ele>
        <time>2015-10-07T13:25:32Z</time>
      </trkpt>
      <trkpt lat="43.50552" lon="6.41901">
        <ele>250.6</ele>
        <time>2015-10-07T13:25:50Z</time>
      </trkpt>
      <trkpt lat="43.5055" lon="6.4189">
        <ele>250.7</ele>
        <time>2015-10-07T13:28:30Z</time>
      </trkpt>
      <trkpt lat="43.5055" lon="6.41889">
        <ele>250.5</ele>
        <time>2015-10-07T13:28:31Z</time>
      </trkpt>
      <trkpt lat="43.50546" lon="6.41868">
        <ele>250.5</ele>
        <time>2015-10-07T13:28:46Z</time>
      </trkpt>
      <trkpt lat="43.50543" lon="6.41857">
        <ele>249.5</ele>
        <time>2015-10-07T13:28:53Z</time>
      </trkpt>
      <trkpt lat="43.50538" lon="6.41849">
        <ele>249.9</ele>
        <time>2015-10-07T13:29:00Z</time>
      </trkpt>
      <trkpt lat="43.50533" lon="6.41839">
        <ele>250</ele>
        <time>2015-10-07T13:29:07Z</time>
      </trkpt>
      <trkpt lat="43.50527" lon="6.4183">
        <ele>249.4</ele>
        <time>2015-10-07T13:29:14Z</time>
      </trkpt>
      <trkpt lat="43.50522" lon="6.41821">
        <ele>250</ele>
        <time>2015-10-07T13:29:22Z</time>
      </trkpt>
      <trkpt lat="43.50516" lon="6.41812">
        <ele>251.7</ele>
        <time>2015-10-07T13:29:30Z</time>
      </trkpt>
      <trkpt lat="43.50511" lon="6.41802">
        <ele>251.8</ele>
        <time>2015-10-07T13:29:41Z</time>
      </trkpt>
      <trkpt lat="43.5051" lon="6.41801">
        <ele>252</ele>
        <time>2015-10-07T13:29:42Z</time>
      </trkpt>
      <trkpt lat="43.50496" lon="6.41792">
        <ele>254.4</ele>
        <time>2015-10-07T13:29:57Z</time>
      </trkpt>
      <trkpt lat="43.5049" lon="6.41785">
        <ele>255.6</ele>
        <time>2015-10-07T13:30:05Z</time>
      </trkpt>
      <trkpt lat="43.50484" lon="6.41777">
        <ele>256.6</ele>
        <time>2015-10-07T13:30:12Z</time>
      </trkpt>
      <trkpt lat="43.50476" lon="6.41771">
        <ele>256.5</ele>
        <time>2015-10-07T13:30:22Z</time>
      </trkpt>
      <trkpt lat="43.50469" lon="6.41766">
        <ele>256.8</ele>
        <time>2015-10-07T13:30:32Z</time>
      </trkpt>
      <trkpt lat="43.5046" lon="6.41763">
        <ele>257.3</ele>
        <time>2015-10-07T13:30:48Z</time>
      </trkpt>
      <trkpt lat="43.5046" lon="6.41763">
        <ele>257.3</ele>
        <time>2015-10-07T13:30:49Z</time>
      </trkpt>
      <trkpt lat="43.50452" lon="6.41756">
        <ele>255.9</ele>
        <time>2015-10-07T13:36:16Z</time>
      </trkpt>
      <trkpt lat="43.5044" lon="6.41742">
        <ele>253.2</ele>
        <time>2015-10-07T13:36:34Z</time>
      </trkpt>
      <trkpt lat="43.50434" lon="6.41735">
        <ele>252.3</ele>
        <time>2015-10-07T13:36:43Z</time>
      </trkpt>
      <trkpt lat="43.50427" lon="6.41727">
        <ele>252.1</ele>
        <time>2015-10-07T13:36:50Z</time>
      </trkpt>
      <trkpt lat="43.50419" lon="6.41722">
        <ele>251</ele>
        <time>2015-10-07T13:36:59Z</time>
      </trkpt>
      <trkpt lat="43.50411" lon="6.41717">
        <ele>249.9</ele>
        <time>2015-10-07T13:37:07Z</time>
      </trkpt>
      <trkpt lat="43.50404" lon="6.41712">
        <ele>249.2</ele>
        <time>2015-10-07T13:37:13Z</time>
      </trkpt>
      <trkpt lat="43.50396" lon="6.41706">
        <ele>248.3</ele>
        <time>2015-10-07T13:37:20Z</time>
      </trkpt>
      <trkpt lat="43.50395" lon="6.41705">
        <ele>248.1</ele>
        <time>2015-10-07T13:37:21Z</time>
      </trkpt>
      <trkpt lat="43.50383" lon="6.41694">
        <ele>247.4</ele>
        <time>2015-10-07T13:37:34Z</time>
      </trkpt>
      <trkpt lat="43.50375" lon="6.41688">
        <ele>246.3</ele>
        <time>2015-10-07T13:37:41Z</time>
      </trkpt>
      <trkpt lat="43.5037" lon="6.41679">
        <ele>244.6</ele>
        <time>2015-10-07T13:37:50Z</time>
      </trkpt>
      <trkpt lat="43.50367" lon="6.41668">
        <ele>243.9</ele>
        <time>2015-10-07T13:37:58Z</time>
      </trkpt>
      <trkpt lat="43.50367" lon="6.41655">
        <ele>242.1</ele>
        <time>2015-10-07T13:38:07Z</time>
      </trkpt>
      <trkpt lat="43.50367" lon="6.41644">
        <ele>242</ele>
        <time>2015-10-07T13:38:14Z</time>
      </trkpt>
      <trkpt lat="43.50369" lon="6.41632">
        <ele>241</ele>
        <time>2015-10-07T13:38:21Z</time>
      </trkpt>
      <trkpt lat="43.50369" lon="6.41631">
        <ele>241</ele>
        <time>2015-10-07T13:38:22Z</time>
      </trkpt>
      <trkpt lat="43.50372" lon="6.41609">
        <ele>240.6</ele>
        <time>2015-10-07T13:38:36Z</time>
      </trkpt>
      <trkpt lat="43.50373" lon="6.41596">
        <ele>239.9</ele>
        <time>2015-10-07T13:38:43Z</time>
      </trkpt>
      <trkpt lat="43.50375" lon="6.41586">
        <ele>238.8</ele>
        <time>2015-10-07T13:38:49Z</time>
      </trkpt>
      <trkpt lat="43.50377" lon="6.41575">
        <ele>238.2</ele>
        <time>2015-10-07T13:38:56Z</time>
      </trkpt>
      <trkpt lat="43.50381" lon="6.41564">
        <ele>237.9</ele>
        <time>2015-10-07T13:39:04Z</time>
      </trkpt>
      <trkpt lat="43.50383" lon="6.41553">
        <ele>237.1</ele>
        <time>2015-10-07T13:39:14Z</time>
      </trkpt>
      <trkpt lat="43.50388" lon="6.41543">
        <ele>236.5</ele>
        <time>2015-10-07T13:39:22Z</time>
      </trkpt>
      <trkpt lat="43.50388" lon="6.41542">
        <ele>236.1</ele>
        <time>2015-10-07T13:39:23Z</time>
      </trkpt>
      <trkpt lat="43.50396" lon="6.41523">
        <ele>235</ele>
        <time>2015-10-07T13:39:40Z</time>
      </trkpt>
      <trkpt lat="43.504" lon="6.41512">
        <ele>233.7</ele>
        <time>2015-10-07T13:39:48Z</time>
      </trkpt>
      <trkpt lat="43.50405" lon="6.41502">
        <ele>233</ele>
        <time>2015-10-07T13:39:56Z</time>
      </trkpt>
      <trkpt lat="43.50409" lon="6.41493">
        <ele>232.4</ele>
        <time>2015-10-07T13:40:01Z</time>
      </trkpt>
      <trkpt lat="43.50414" lon="6.41484">
        <ele>231.4</ele>
        <time>2015-10-07T13:40:08Z</time>
      </trkpt>
      <trkpt lat="43.50419" lon="6.41475">
        <ele>229.8</ele>
        <time>2015-10-07T13:40:15Z</time>
      </trkpt>
      <trkpt lat="43.50423" lon="6.41466">
        <ele>228.6</ele>
        <time>2015-10-07T13:40:22Z</time>
      </trkpt>
      <trkpt lat="43.50426" lon="6.41456">
        <ele>227.9</ele>
        <time>2015-10-07T13:40:31Z</time>
      </trkpt>
      <trkpt lat="43.50427" lon="6.41454">
        <ele>227.8</ele>
        <time>2015-10-07T13:40:32Z</time>
      </trkpt>
      <trkpt lat="43.50436" lon="6.41436">
        <ele>226</ele>
        <time>2015-10-07T13:40:48Z</time>
      </trkpt>
      <trkpt lat="43.50442" lon="6.41429">
        <ele>224.8</ele>
        <time>2015-10-07T13:40:55Z</time>
      </trkpt>
      <trkpt lat="43.50447" lon="6.41419">
        <ele>224.7</ele>
        <time>2015-10-07T13:41:05Z</time>
      </trkpt>
      <trkpt lat="43.50454" lon="6.41412">
        <ele>224</ele>
        <time>2015-10-07T13:41:16Z</time>
      </trkpt>
      <trkpt lat="43.50461" lon="6.41403">
        <ele>222.5</ele>
        <time>2015-10-07T13:41:22Z</time>
      </trkpt>
      <trkpt lat="43.50467" lon="6.41394">
        <ele>221.3</ele>
        <time>2015-10-07T13:41:33Z</time>
      </trkpt>
      <trkpt lat="43.50468" lon="6.41393">
        <ele>221.3</ele>
        <time>2015-10-07T13:41:34Z</time>
      </trkpt>
      <trkpt lat="43.5048" lon="6.41378">
        <ele>218.9</ele>
        <time>2015-10-07T13:41:50Z</time>
      </trkpt>
      <trkpt lat="43.50484" lon="6.41368">
        <ele>218.5</ele>
        <time>2015-10-07T13:41:57Z</time>
      </trkpt>
      <trkpt lat="43.50488" lon="6.41357">
        <ele>217.2</ele>
        <time>2015-10-07T13:42:03Z</time>
      </trkpt>
      <trkpt lat="43.50492" lon="6.41347">
        <ele>216.4</ele>
        <time>2015-10-07T13:42:13Z</time>
      </trkpt>
      <trkpt lat="43.50496" lon="6.41336">
        <ele>215.9</ele>
        <time>2015-10-07T13:42:20Z</time>
      </trkpt>
      <trkpt lat="43.50496" lon="6.41325">
        <ele>215.2</ele>
        <time>2015-10-07T13:42:27Z</time>
      </trkpt>
      <trkpt lat="43.50498" lon="6.41314">
        <ele>213.8</ele>
        <time>2015-10-07T13:42:36Z</time>
      </trkpt>
      <trkpt lat="43.50498" lon="6.41312">
        <ele>213.5</ele>
        <time>2015-10-07T13:42:37Z</time>
      </trkpt>
      <trkpt lat="43.50496" lon="6.4129">
        <ele>212.7</ele>
        <time>2015-10-07T13:42:55Z</time>
      </trkpt>
      <trkpt lat="43.50497" lon="6.41278">
        <ele>212.4</ele>
        <time>2015-10-07T13:43:07Z</time>
      </trkpt>
      <trkpt lat="43.50499" lon="6.41267">
        <ele>211</ele>
        <time>2015-10-07T13:43:16Z</time>
      </trkpt>
      <trkpt lat="43.50502" lon="6.41256">
        <ele>210.6</ele>
        <time>2015-10-07T13:43:30Z</time>
      </trkpt>
      <trkpt lat="43.50507" lon="6.41246">
        <ele>209.8</ele>
        <time>2015-10-07T13:43:38Z</time>
      </trkpt>
      <trkpt lat="43.50508" lon="6.41245">
        <ele>209.8</ele>
        <time>2015-10-07T13:43:39Z</time>
      </trkpt>
      <trkpt lat="43.50517" lon="6.41229">
        <ele>207.8</ele>
        <time>2015-10-07T13:43:52Z</time>
      </trkpt>
      <trkpt lat="43.50525" lon="6.41224">
        <ele>207.6</ele>
        <time>2015-10-07T13:43:59Z</time>
      </trkpt>
      <trkpt lat="43.50531" lon="6.41216">
        <ele>207</ele>
        <time>2015-10-07T13:44:07Z</time>
      </trkpt>
      <trkpt lat="43.50536" lon="6.41206">
        <ele>206</ele>
        <time>2015-10-07T13:44:15Z</time>
      </trkpt>
      <trkpt lat="43.5054" lon="6.41196">
        <ele>205.4</ele>
        <time>2015-10-07T13:44:23Z</time>
      </trkpt>
      <trkpt lat="43.50543" lon="6.41185">
        <ele>204.7</ele>
        <time>2015-10-07T13:44:34Z</time>
      </trkpt>
      <trkpt lat="43.50547" lon="6.41176">
        <ele>204.5</ele>
        <time>2015-10-07T13:44:42Z</time>
      </trkpt>
      <trkpt lat="43.50548" lon="6.41174">
        <ele>204.1</ele>
        <time>2015-10-07T13:44:43Z</time>
      </trkpt>
      <trkpt lat="43.50556" lon="6.41157">
        <ele>203.9</ele>
        <time>2015-10-07T13:44:56Z</time>
      </trkpt>
      <trkpt lat="43.50554" lon="6.41145">
        <ele>203.5</ele>
        <time>2015-10-07T13:45:06Z</time>
      </trkpt>
      <trkpt lat="43.50554" lon="6.41133">
        <ele>202.9</ele>
        <time>2015-10-07T13:45:15Z</time>
      </trkpt>
      <trkpt lat="43.50555" lon="6.41122">
        <ele>201.3</ele>
        <time>2015-10-07T13:45:24Z</time>
      </trkpt>
      <trkpt lat="43.50556" lon="6.4111">
        <ele>201.8</ele>
        <time>2015-10-07T13:45:32Z</time>
      </trkpt>
      <trkpt lat="43.50558" lon="6.41098">
        <ele>201.4</ele>
        <time>2015-10-07T13:45:40Z</time>
      </trkpt>
      <trkpt lat="43.50559" lon="6.41086">
        <ele>200.7</ele>
        <time>2015-10-07T13:45:48Z</time>
      </trkpt>
      <trkpt lat="43.5056" lon="6.41085">
        <ele>200.5</ele>
        <time>2015-10-07T13:45:49Z</time>
      </trkpt>
      <trkpt lat="43.50561" lon="6.41063">
        <ele>199.9</ele>
        <time>2015-10-07T13:46:07Z</time>
      </trkpt>
      <trkpt lat="43.50563" lon="6.41053">
        <ele>198.8</ele>
        <time>2015-10-07T13:46:18Z</time>
      </trkpt>
      <trkpt lat="43.50568" lon="6.41043">
        <ele>197.7</ele>
        <time>2015-10-07T13:46:25Z</time>
      </trkpt>
      <trkpt lat="43.50572" lon="6.41033">
        <ele>197.8</ele>
        <time>2015-10-07T13:46:35Z</time>
      </trkpt>
      <trkpt lat="43.50574" lon="6.41022">
        <ele>196.6</ele>
        <time>2015-10-07T13:46:45Z</time>
      </trkpt>
      <trkpt lat="43.50579" lon="6.41014">
        <ele>196.7</ele>
        <time>2015-10-07T13:46:51Z</time>
      </trkpt>
      <trkpt lat="43.5058" lon="6.41012">
        <ele>196.4</ele>
        <time>2015-10-07T13:46:52Z</time>
      </trkpt>
      <trkpt lat="43.50583" lon="6.40992">
        <ele>196.7</ele>
        <time>2015-10-07T13:47:04Z</time>
      </trkpt>
      <trkpt lat="43.50583" lon="6.4098">
        <ele>196.1</ele>
        <time>2015-10-07T13:47:10Z</time>
      </trkpt>
      <trkpt lat="43.50584" lon="6.40969">
        <ele>195.7</ele>
        <time>2015-10-07T13:47:17Z</time>
      </trkpt>
      <trkpt lat="43.50584" lon="6.40958">
        <ele>195.7</ele>
        <time>2015-10-07T13:47:25Z</time>
      </trkpt>
      <trkpt lat="43.50581" lon="6.40946">
        <ele>195</ele>
        <time>2015-10-07T13:47:34Z</time>
      </trkpt>
      <trkpt lat="43.5058" lon="6.40935">
        <ele>195.8</ele>
        <time>2015-10-07T13:47:43Z</time>
      </trkpt>
      <trkpt lat="43.50579" lon="6.40924">
        <ele>195.7</ele>
        <time>2015-10-07T13:47:51Z</time>
      </trkpt>
      <trkpt lat="43.50582" lon="6.40913">
        <ele>195</ele>
        <time>2015-10-07T13:48:01Z</time>
      </trkpt>
      <trkpt lat="43.50582" lon="6.40911">
        <ele>195.1</ele>
        <time>2015-10-07T13:48:02Z</time>
      </trkpt>
      <trkpt lat="43.50584" lon="6.40889">
        <ele>193.4</ele>
        <time>2015-10-07T13:48:19Z</time>
      </trkpt>
      <trkpt lat="43.50585" lon="6.40878">
        <ele>192.8</ele>
        <time>2015-10-07T13:48:26Z</time>
      </trkpt>
      <trkpt lat="43.50585" lon="6.40867">
        <ele>192.5</ele>
        <time>2015-10-07T13:48:34Z</time>
      </trkpt>
      <trkpt lat="43.50583" lon="6.40856">
        <ele>192.2</ele>
        <time>2015-10-07T13:48:41Z</time>
      </trkpt>
      <trkpt lat="43.50579" lon="6.40846">
        <ele>191.9</ele>
        <time>2015-10-07T13:48:48Z</time>
      </trkpt>
      <trkpt lat="43.50579" lon="6.40834">
        <ele>191.3</ele>
        <time>2015-10-07T13:48:55Z</time>
      </trkpt>
      <trkpt lat="43.50575" lon="6.40824">
        <ele>191.3</ele>
        <time>2015-10-07T13:49:03Z</time>
      </trkpt>
      <trkpt lat="43.50575" lon="6.40823">
        <ele>191.2</ele>
        <time>2015-10-07T13:49:04Z</time>
      </trkpt>
      <trkpt lat="43.50569" lon="6.40803">
        <ele>191.1</ele>
        <time>2015-10-07T13:49:19Z</time>
      </trkpt>
      <trkpt lat="43.50568" lon="6.40791">
        <ele>191.1</ele>
        <time>2015-10-07T13:49:27Z</time>
      </trkpt>
      <trkpt lat="43.50564" lon="6.4078">
        <ele>191.5</ele>
        <time>2015-10-07T13:49:34Z</time>
      </trkpt>
      <trkpt lat="43.50559" lon="6.40772">
        <ele>191.4</ele>
        <time>2015-10-07T13:49:40Z</time>
      </trkpt>
      <trkpt lat="43.50556" lon="6.4076">
        <ele>192.4</ele>
        <time>2015-10-07T13:49:48Z</time>
      </trkpt>
      <trkpt lat="43.50551" lon="6.40752">
        <ele>192.4</ele>
        <time>2015-10-07T13:49:55Z</time>
      </trkpt>
      <trkpt lat="43.50545" lon="6.40745">
        <ele>191.4</ele>
        <time>2015-10-07T13:50:02Z</time>
      </trkpt>
      <trkpt lat="43.50538" lon="6.40736">
        <ele>190.5</ele>
        <time>2015-10-07T13:50:09Z</time>
      </trkpt>
      <trkpt lat="43.50537" lon="6.40735">
        <ele>190.8</ele>
        <time>2015-10-07T13:50:10Z</time>
      </trkpt>
      <trkpt lat="43.50524" lon="6.40727">
        <ele>189.8</ele>
        <time>2015-10-07T13:50:19Z</time>
      </trkpt>
      <trkpt lat="43.50517" lon="6.40721">
        <ele>190.2</ele>
        <time>2015-10-07T13:50:25Z</time>
      </trkpt>
      <trkpt lat="43.50509" lon="6.40715">
        <ele>188.5</ele>
        <time>2015-10-07T13:50:32Z</time>
      </trkpt>
      <trkpt lat="43.50503" lon="6.4071">
        <ele>188</ele>
        <time>2015-10-07T13:50:38Z</time>
      </trkpt>
      <trkpt lat="43.50495" lon="6.40704">
        <ele>189</ele>
        <time>2015-10-07T13:50:46Z</time>
      </trkpt>
      <trkpt lat="43.5049" lon="6.40695">
        <ele>189.5</ele>
        <time>2015-10-07T13:50:53Z</time>
      </trkpt>
      <trkpt lat="43.50484" lon="6.40686">
        <ele>188.2</ele>
        <time>2015-10-07T13:51:01Z</time>
      </trkpt>
      <trkpt lat="43.50482" lon="6.40674">
        <ele>188.3</ele>
        <time>2015-10-07T13:51:10Z</time>
      </trkpt>
      <trkpt lat="43.50482" lon="6.40673">
        <ele>188.4</ele>
        <time>2015-10-07T13:51:11Z</time>
      </trkpt>
      <trkpt lat="43.50478" lon="6.40653">
        <ele>188.5</ele>
        <time>2015-10-07T13:51:25Z</time>
      </trkpt>
      <trkpt lat="43.50475" lon="6.40643">
        <ele>188.6</ele>
        <time>2015-10-07T13:51:32Z</time>
      </trkpt>
      <trkpt lat="43.5047" lon="6.40633">
        <ele>188.6</ele>
        <time>2015-10-07T13:51:39Z</time>
      </trkpt>
      <trkpt lat="43.50464" lon="6.40626">
        <ele>187</ele>
        <time>2015-10-07T13:51:45Z</time>
      </trkpt>
      <trkpt lat="43.50459" lon="6.40618">
        <ele>186.4</ele>
        <time>2015-10-07T13:51:51Z</time>
      </trkpt>
      <trkpt lat="43.50455" lon="6.40608">
        <ele>185.1</ele>
        <time>2015-10-07T13:52:01Z</time>
      </trkpt>
      <trkpt lat="43.50451" lon="6.40597">
        <ele>184.7</ele>
        <time>2015-10-07T13:52:10Z</time>
      </trkpt>
      <trkpt lat="43.50445" lon="6.40593">
        <ele>184.1</ele>
        <time>2015-10-07T13:52:17Z</time>
      </trkpt>
      <trkpt lat="43.50443" lon="6.40592">
        <ele>183.9</ele>
        <time>2015-10-07T13:52:18Z</time>
      </trkpt>
      <trkpt lat="43.50429" lon="6.40584">
        <ele>182.2</ele>
        <time>2015-10-07T13:52:32Z</time>
      </trkpt>
      <trkpt lat="43.50422" lon="6.40582">
        <ele>181.6</ele>
        <time>2015-10-07T13:52:40Z</time>
      </trkpt>
      <trkpt lat="43.50413" lon="6.4058">
        <ele>180.5</ele>
        <time>2015-10-07T13:52:48Z</time>
      </trkpt>
      <trkpt lat="43.50404" lon="6.40579">
        <ele>181.2</ele>
        <time>2015-10-07T13:52:55Z</time>
      </trkpt>
      <trkpt lat="43.50398" lon="6.40572">
        <ele>179.8</ele>
        <time>2015-10-07T13:53:01Z</time>
      </trkpt>
      <trkpt lat="43.50391" lon="6.40567">
        <ele>180.2</ele>
        <time>2015-10-07T13:53:05Z</time>
      </trkpt>
      <trkpt lat="43.50383" lon="6.40564">
        <ele>180</ele>
        <time>2015-10-07T13:53:12Z</time>
      </trkpt>
      <trkpt lat="43.50375" lon="6.40563">
        <ele>178.2</ele>
        <time>2015-10-07T13:53:20Z</time>
      </trkpt>
      <trkpt lat="43.50373" lon="6.40563">
        <ele>178.6</ele>
        <time>2015-10-07T13:53:21Z</time>
      </trkpt>
      <trkpt lat="43.50358" lon="6.40567">
        <ele>178.5</ele>
        <time>2015-10-07T13:53:34Z</time>
      </trkpt>
      <trkpt lat="43.5035" lon="6.40565">
        <ele>179.2</ele>
        <time>2015-10-07T13:53:42Z</time>
      </trkpt>
      <trkpt lat="43.50342" lon="6.40567">
        <ele>178.9</ele>
        <time>2015-10-07T13:53:50Z</time>
      </trkpt>
      <trkpt lat="43.50333" lon="6.40563">
        <ele>179</ele>
        <time>2015-10-07T13:54:02Z</time>
      </trkpt>
      <trkpt lat="43.50334" lon="6.40551">
        <ele>178.8</ele>
        <time>2015-10-07T13:54:10Z</time>
      </trkpt>
      <trkpt lat="43.50334" lon="6.40539">
        <ele>179.4</ele>
        <time>2015-10-07T13:54:21Z</time>
      </trkpt>
      <trkpt lat="43.50334" lon="6.40539">
        <ele>179.3</ele>
        <time>2015-10-07T13:54:22Z</time>
      </trkpt>
      <trkpt lat="43.50339" lon="6.40517">
        <ele>180.3</ele>
        <time>2015-10-07T13:54:39Z</time>
      </trkpt>
      <trkpt lat="43.50337" lon="6.40506">
        <ele>180.7</ele>
        <time>2015-10-07T13:54:45Z</time>
      </trkpt>
      <trkpt lat="43.50335" lon="6.40495">
        <ele>181.2</ele>
        <time>2015-10-07T13:54:52Z</time>
      </trkpt>
      <trkpt lat="43.50329" lon="6.40485">
        <ele>181.6</ele>
        <time>2015-10-07T13:54:59Z</time>
      </trkpt>
      <trkpt lat="43.50327" lon="6.40475">
        <ele>181.3</ele>
        <time>2015-10-07T13:55:07Z</time>
      </trkpt>
      <trkpt lat="43.50323" lon="6.40464">
        <ele>180.2</ele>
        <time>2015-10-07T13:55:16Z</time>
      </trkpt>
      <trkpt lat="43.5032" lon="6.40453">
        <ele>179.2</ele>
        <time>2015-10-07T13:55:26Z</time>
      </trkpt>
      <trkpt lat="43.5032" lon="6.4045">
        <ele>179.2</ele>
        <time>2015-10-07T13:55:27Z</time>
      </trkpt>
      <trkpt lat="43.50314" lon="6.40431">
        <ele>178.4</ele>
        <time>2015-10-07T13:55:41Z</time>
      </trkpt>
      <trkpt lat="43.50307" lon="6.40425">
        <ele>177.5</ele>
        <time>2015-10-07T13:55:47Z</time>
      </trkpt>
      <trkpt lat="43.50306" lon="6.40413">
        <ele>177.2</ele>
        <time>2015-10-07T13:55:56Z</time>
      </trkpt>
      <trkpt lat="43.50308" lon="6.40401">
        <ele>175.3</ele>
        <time>2015-10-07T13:56:07Z</time>
      </trkpt>
      <trkpt lat="43.50308" lon="6.40389">
        <ele>173.4</ele>
        <time>2015-10-07T13:56:18Z</time>
      </trkpt>
      <trkpt lat="43.50308" lon="6.40377">
        <ele>172.4</ele>
        <time>2015-10-07T13:56:27Z</time>
      </trkpt>
      <trkpt lat="43.50309" lon="6.40376">
        <ele>172.1</ele>
        <time>2015-10-07T13:56:28Z</time>
      </trkpt>
      <trkpt lat="43.50304" lon="6.40356">
        <ele>169.4</ele>
        <time>2015-10-07T13:56:44Z</time>
      </trkpt>
      <trkpt lat="43.50302" lon="6.40344">
        <ele>168.6</ele>
        <time>2015-10-07T13:56:54Z</time>
      </trkpt>
      <trkpt lat="43.50304" lon="6.40333">
        <ele>168.5</ele>
        <time>2015-10-07T13:57:02Z</time>
      </trkpt>
      <trkpt lat="43.50302" lon="6.40322">
        <ele>166.9</ele>
        <time>2015-10-07T13:57:12Z</time>
      </trkpt>
      <trkpt lat="43.50298" lon="6.40311">
        <ele>166.5</ele>
        <time>2015-10-07T13:57:22Z</time>
      </trkpt>
      <trkpt lat="43.50296" lon="6.40299">
        <ele>165.1</ele>
        <time>2015-10-07T13:57:31Z</time>
      </trkpt>
      <trkpt lat="43.50295" lon="6.40298">
        <ele>165.1</ele>
        <time>2015-10-07T13:57:32Z</time>
      </trkpt>
      <trkpt lat="43.50301" lon="6.40278">
        <ele>163.1</ele>
        <time>2015-10-07T13:57:47Z</time>
      </trkpt>
      <trkpt lat="43.50302" lon="6.40267">
        <ele>161.8</ele>
        <time>2015-10-07T13:57:53Z</time>
      </trkpt>
      <trkpt lat="43.50306" lon="6.40257">
        <ele>161.4</ele>
        <time>2015-10-07T13:58:03Z</time>
      </trkpt>
      <trkpt lat="43.5031" lon="6.40247">
        <ele>161.2</ele>
        <time>2015-10-07T13:58:09Z</time>
      </trkpt>
      <trkpt lat="43.50313" lon="6.40236">
        <ele>160.3</ele>
        <time>2015-10-07T13:58:16Z</time>
      </trkpt>
      <trkpt lat="43.50315" lon="6.40225">
        <ele>158.8</ele>
        <time>2015-10-07T13:58:24Z</time>
      </trkpt>
      <trkpt lat="43.50312" lon="6.40213">
        <ele>157.4</ele>
        <time>2015-10-07T13:58:35Z</time>
      </trkpt>
      <trkpt lat="43.50312" lon="6.40213">
        <ele>157.5</ele>
        <time>2015-10-07T13:58:36Z</time>
      </trkpt>
      <trkpt lat="43.50309" lon="6.40191">
        <ele>157.6</ele>
        <time>2015-10-07T13:58:53Z</time>
      </trkpt>
      <trkpt lat="43.50307" lon="6.4018">
        <ele>155.7</ele>
        <time>2015-10-07T13:59:03Z</time>
      </trkpt>
      <trkpt lat="43.50305" lon="6.40169">
        <ele>154.1</ele>
        <time>2015-10-07T13:59:12Z</time>
      </trkpt>
      <trkpt lat="43.50304" lon="6.40157">
        <ele>153.9</ele>
        <time>2015-10-07T13:59:23Z</time>
      </trkpt>
      <trkpt lat="43.503" lon="6.40148">
        <ele>154.2</ele>
        <time>2015-10-07T13:59:32Z</time>
      </trkpt>
      <trkpt lat="43.50294" lon="6.4014">
        <ele>154.1</ele>
        <time>2015-10-07T13:59:37Z</time>
      </trkpt>
      <trkpt lat="43.50293" lon="6.40139">
        <ele>154.1</ele>
        <time>2015-10-07T13:59:38Z</time>
      </trkpt>
      <trkpt lat="43.50283" lon="6.40123">
        <ele>154.6</ele>
        <time>2015-10-07T13:59:54Z</time>
      </trkpt>
      <trkpt lat="43.50281" lon="6.40112">
        <ele>154</ele>
        <time>2015-10-07T14:00:04Z</time>
      </trkpt>
      <trkpt lat="43.50285" lon="6.40102">
        <ele>155.1</ele>
        <time>2015-10-07T14:00:24Z</time>
      </trkpt>
      <trkpt lat="43.50288" lon="6.40091">
        <ele>154.9</ele>
        <time>2015-10-07T14:00:48Z</time>
      </trkpt>
      <trkpt lat="43.50288" lon="6.4009">
        <ele>155.2</ele>
        <time>2015-10-07T14:00:49Z</time>
      </trkpt>
      <trkpt lat="43.50299" lon="6.40076">
        <ele>154.5</ele>
        <time>2015-10-07T14:01:39Z</time>
      </trkpt>
      <trkpt lat="43.50301" lon="6.40064">
        <ele>154.5</ele>
        <time>2015-10-07T14:01:53Z</time>
      </trkpt>
      <trkpt lat="43.50301" lon="6.40063">
        <ele>154.6</ele>
        <time>2015-10-07T14:01:54Z</time>
      </trkpt>
      <trkpt lat="43.50311" lon="6.40045">
        <ele>155.4</ele>
        <time>2015-10-07T14:02:25Z</time>
      </trkpt>
      <trkpt lat="43.50316" lon="6.40034">
        <ele>155.2</ele>
        <time>2015-10-07T14:04:22Z</time>
      </trkpt>
      <trkpt lat="43.50316" lon="6.40034">
        <ele>155.3</ele>
        <time>2015-10-07T14:04:23Z</time>
      </trkpt>
      <trkpt lat="43.50315" lon="6.40022">
        <ele>156.9</ele>
        <time>2015-10-07T14:09:18Z</time>
      </trkpt>
      <trkpt lat="43.50312" lon="6.40043">
        <ele>157.8</ele>
        <time>2015-10-07T14:09:43Z</time>
      </trkpt>
      <trkpt lat="43.50319" lon="6.40037">
        <ele>156.6</ele>
        <time>2015-10-07T14:10:38Z</time>
      </trkpt>
      <trkpt lat="43.5032" lon="6.40037">
        <ele>156.4</ele>
        <time>2015-10-07T14:10:39Z</time>
      </trkpt>
      <trkpt lat="43.50336" lon="6.40043">
        <ele>158.1</ele>
        <time>2015-10-07T14:10:57Z</time>
      </trkpt>
      <trkpt lat="43.50344" lon="6.40048">
        <ele>158.1</ele>
        <time>2015-10-07T14:11:05Z</time>
      </trkpt>
      <trkpt lat="43.50351" lon="6.40053">
        <ele>158.7</ele>
        <time>2015-10-07T14:11:12Z</time>
      </trkpt>
      <trkpt lat="43.50359" lon="6.40059">
        <ele>158.4</ele>
        <time>2015-10-07T14:11:18Z</time>
      </trkpt>
      <trkpt lat="43.50364" lon="6.40066">
        <ele>157.5</ele>
        <time>2015-10-07T14:11:24Z</time>
      </trkpt>
      <trkpt lat="43.50367" lon="6.40076">
        <ele>158.1</ele>
        <time>2015-10-07T14:11:33Z</time>
      </trkpt>
      <trkpt lat="43.50373" lon="6.40085">
        <ele>157.6</ele>
        <time>2015-10-07T14:11:46Z</time>
      </trkpt>
      <trkpt lat="43.50374" lon="6.40086">
        <ele>157.9</ele>
        <time>2015-10-07T14:11:47Z</time>
      </trkpt>
      <trkpt lat="43.50387" lon="6.40098">
        <ele>158.6</ele>
        <time>2015-10-07T14:12:00Z</time>
      </trkpt>
      <trkpt lat="43.50395" lon="6.401">
        <ele>159.5</ele>
        <time>2015-10-07T14:12:08Z</time>
      </trkpt>
      <trkpt lat="43.50403" lon="6.40096">
        <ele>158.6</ele>
        <time>2015-10-07T14:12:15Z</time>
      </trkpt>
      <trkpt lat="43.50411" lon="6.40094">
        <ele>159.2</ele>
        <time>2015-10-07T14:12:23Z</time>
      </trkpt>
      <trkpt lat="43.50418" lon="6.40088">
        <ele>158.8</ele>
        <time>2015-10-07T14:12:32Z</time>
      </trkpt>
      <trkpt lat="43.50426" lon="6.40083">
        <ele>160.2</ele>
        <time>2015-10-07T14:12:41Z</time>
      </trkpt>
      <trkpt lat="43.50431" lon="6.40073">
        <ele>161</ele>
        <time>2015-10-07T14:12:51Z</time>
      </trkpt>
      <trkpt lat="43.50432" lon="6.40072">
        <ele>161.4</ele>
        <time>2015-10-07T14:12:52Z</time>
      </trkpt>
      <trkpt lat="43.50441" lon="6.40054">
        <ele>162.6</ele>
        <time>2015-10-07T14:13:08Z</time>
      </trkpt>
      <trkpt lat="43.50449" lon="6.40048">
        <ele>163.9</ele>
        <time>2015-10-07T14:13:19Z</time>
      </trkpt>
      <trkpt lat="43.50456" lon="6.40044">
        <ele>164.7</ele>
        <time>2015-10-07T14:13:29Z</time>
      </trkpt>
      <trkpt lat="43.50464" lon="6.4004">
        <ele>164.5</ele>
        <time>2015-10-07T14:13:37Z</time>
      </trkpt>
      <trkpt lat="43.50472" lon="6.40036">
        <ele>165.1</ele>
        <time>2015-10-07T14:13:48Z</time>
      </trkpt>
      <trkpt lat="43.5048" lon="6.40034">
        <ele>165.8</ele>
        <time>2015-10-07T14:13:58Z</time>
      </trkpt>
      <trkpt lat="43.5048" lon="6.40033">
        <ele>166</ele>
        <time>2015-10-07T14:13:59Z</time>
      </trkpt>
      <trkpt lat="43.50493" lon="6.40019">
        <ele>167.7</ele>
        <time>2015-10-07T14:14:13Z</time>
      </trkpt>
      <trkpt lat="43.505" lon="6.40013">
        <ele>168.7</ele>
        <time>2015-10-07T14:14:24Z</time>
      </trkpt>
      <trkpt lat="43.50506" lon="6.40005">
        <ele>169</ele>
        <time>2015-10-07T14:14:32Z</time>
      </trkpt>
      <trkpt lat="43.50511" lon="6.39997">
        <ele>168.2</ele>
        <time>2015-10-07T14:14:40Z</time>
      </trkpt>
      <trkpt lat="43.50516" lon="6.3999">
        <ele>167.5</ele>
        <time>2015-10-07T14:14:43Z</time>
      </trkpt>
      <trkpt lat="43.50519" lon="6.39979">
        <ele>168</ele>
        <time>2015-10-07T14:14:49Z</time>
      </trkpt>
      <trkpt lat="43.5052" lon="6.39968">
        <ele>168</ele>
        <time>2015-10-07T14:14:56Z</time>
      </trkpt>
      <trkpt lat="43.50522" lon="6.39957">
        <ele>167.9</ele>
        <time>2015-10-07T14:15:05Z</time>
      </trkpt>
      <trkpt lat="43.50522" lon="6.39956">
        <ele>167.9</ele>
        <time>2015-10-07T14:15:06Z</time>
      </trkpt>
      <trkpt lat="43.50523" lon="6.39935">
        <ele>167.2</ele>
        <time>2015-10-07T14:15:24Z</time>
      </trkpt>
      <trkpt lat="43.50514" lon="6.39931">
        <ele>167.3</ele>
        <time>2015-10-07T14:15:35Z</time>
      </trkpt>
      <trkpt lat="43.50516" lon="6.39918">
        <ele>167.6</ele>
        <time>2015-10-07T14:15:42Z</time>
      </trkpt>
      <trkpt lat="43.50511" lon="6.39908">
        <ele>167.4</ele>
        <time>2015-10-07T14:16:01Z</time>
      </trkpt>
      <trkpt lat="43.50509" lon="6.39897">
        <ele>167.9</ele>
        <time>2015-10-07T14:17:22Z</time>
      </trkpt>
      <trkpt lat="43.50509" lon="6.39896">
        <ele>167.9</ele>
        <time>2015-10-07T14:17:23Z</time>
      </trkpt>
      <trkpt lat="43.50497" lon="6.39879">
        <ele>169.5</ele>
        <time>2015-10-07T14:17:56Z</time>
      </trkpt>
      <trkpt lat="43.50489" lon="6.39875">
        <ele>169.4</ele>
        <time>2015-10-07T14:18:05Z</time>
      </trkpt>
      <trkpt lat="43.50481" lon="6.39873">
        <ele>169.5</ele>
        <time>2015-10-07T14:18:13Z</time>
      </trkpt>
      <trkpt lat="43.50473" lon="6.39869">
        <ele>168.7</ele>
        <time>2015-10-07T14:18:21Z</time>
      </trkpt>
      <trkpt lat="43.50471" lon="6.39857">
        <ele>169.7</ele>
        <time>2015-10-07T14:18:44Z</time>
      </trkpt>
      <trkpt lat="43.50472" lon="6.39855">
        <ele>169.6</ele>
        <time>2015-10-07T14:18:45Z</time>
      </trkpt>
      <trkpt lat="43.50469" lon="6.39834">
        <ele>170.3</ele>
        <time>2015-10-07T14:19:04Z</time>
      </trkpt>
      <trkpt lat="43.50463" lon="6.39825">
        <ele>170.1</ele>
        <time>2015-10-07T14:19:12Z</time>
      </trkpt>
      <trkpt lat="43.50461" lon="6.39813">
        <ele>170.5</ele>
        <time>2015-10-07T14:19:25Z</time>
      </trkpt>
      <trkpt lat="43.50458" lon="6.39802">
        <ele>171.6</ele>
        <time>2015-10-07T14:19:38Z</time>
      </trkpt>
      <trkpt lat="43.50452" lon="6.39796">
        <ele>171.7</ele>
        <time>2015-10-07T14:19:45Z</time>
      </trkpt>
      <trkpt lat="43.50451" lon="6.39794">
        <ele>171.6</ele>
        <time>2015-10-07T14:19:46Z</time>
      </trkpt>
      <trkpt lat="43.50447" lon="6.39775">
        <ele>172.4</ele>
        <time>2015-10-07T14:20:08Z</time>
      </trkpt>
      <trkpt lat="43.50443" lon="6.39766">
        <ele>173.3</ele>
        <time>2015-10-07T14:20:18Z</time>
      </trkpt>
      <trkpt lat="43.50442" lon="6.39755">
        <ele>173.1</ele>
        <time>2015-10-07T14:20:25Z</time>
      </trkpt>
      <trkpt lat="43.5044" lon="6.39744">
        <ele>172.7</ele>
        <time>2015-10-07T14:20:36Z</time>
      </trkpt>
      <trkpt lat="43.50436" lon="6.39734">
        <ele>174.5</ele>
        <time>2015-10-07T14:20:44Z</time>
      </trkpt>
      <trkpt lat="43.50431" lon="6.39725">
        <ele>174.3</ele>
        <time>2015-10-07T14:20:52Z</time>
      </trkpt>
      <trkpt lat="43.5043" lon="6.39723">
        <ele>174.4</ele>
        <time>2015-10-07T14:20:53Z</time>
      </trkpt>
      <trkpt lat="43.50421" lon="6.39706">
        <ele>174.6</ele>
        <time>2015-10-07T14:21:19Z</time>
      </trkpt>
      <trkpt lat="43.5042" lon="6.39697">
        <ele>173.8</ele>
        <time>2015-10-07T14:21:25Z</time>
      </trkpt>
      <trkpt lat="43.5042" lon="6.39685">
        <ele>174.1</ele>
        <time>2015-10-07T14:21:31Z</time>
      </trkpt>
      <trkpt lat="43.5042" lon="6.39674">
        <ele>173.7</ele>
        <time>2015-10-07T14:21:39Z</time>
      </trkpt>
      <trkpt lat="43.5042" lon="6.39663">
        <ele>173.7</ele>
        <time>2015-10-07T14:21:47Z</time>
      </trkpt>
      <trkpt lat="43.50422" lon="6.39651">
        <ele>173.9</ele>
        <time>2015-10-07T14:21:55Z</time>
      </trkpt>
      <trkpt lat="43.50422" lon="6.3965">
        <ele>173.8</ele>
        <time>2015-10-07T14:21:56Z</time>
      </trkpt>
      <trkpt lat="43.50423" lon="6.3963">
        <ele>173.3</ele>
        <time>2015-10-07T14:22:12Z</time>
      </trkpt>
      <trkpt lat="43.50426" lon="6.39618">
        <ele>174</ele>
        <time>2015-10-07T14:22:18Z</time>
      </trkpt>
      <trkpt lat="43.50424" lon="6.39607">
        <ele>174.4</ele>
        <time>2015-10-07T14:22:31Z</time>
      </trkpt>
      <trkpt lat="43.50429" lon="6.39599">
        <ele>174.7</ele>
        <time>2015-10-07T14:22:36Z</time>
      </trkpt>
      <trkpt lat="43.50434" lon="6.3959">
        <ele>174.3</ele>
        <time>2015-10-07T14:22:40Z</time>
      </trkpt>
      <trkpt lat="43.50439" lon="6.3958">
        <ele>174.6</ele>
        <time>2015-10-07T14:22:50Z</time>
      </trkpt>
      <trkpt lat="43.50443" lon="6.39569">
        <ele>174.3</ele>
        <time>2015-10-07T14:22:56Z</time>
      </trkpt>
      <trkpt lat="43.50443" lon="6.39568">
        <ele>174.7</ele>
        <time>2015-10-07T14:22:57Z</time>
      </trkpt>
      <trkpt lat="43.50447" lon="6.39549">
        <ele>174.3</ele>
        <time>2015-10-07T14:23:09Z</time>
      </trkpt>
      <trkpt lat="43.50451" lon="6.39539">
        <ele>174.8</ele>
        <time>2015-10-07T14:23:16Z</time>
      </trkpt>
      <trkpt lat="43.50453" lon="6.39528">
        <ele>175.4</ele>
        <time>2015-10-07T14:23:24Z</time>
      </trkpt>
      <trkpt lat="43.50454" lon="6.39516">
        <ele>175.1</ele>
        <time>2015-10-07T14:23:30Z</time>
      </trkpt>
      <trkpt lat="43.50458" lon="6.39505">
        <ele>175</ele>
        <time>2015-10-07T14:23:34Z</time>
      </trkpt>
      <trkpt lat="43.5046" lon="6.39494">
        <ele>175.2</ele>
        <time>2015-10-07T14:23:40Z</time>
      </trkpt>
      <trkpt lat="43.50459" lon="6.39482">
        <ele>175.9</ele>
        <time>2015-10-07T14:23:56Z</time>
      </trkpt>
      <trkpt lat="43.50463" lon="6.39472">
        <ele>176.3</ele>
        <time>2015-10-07T14:24:02Z</time>
      </trkpt>
      <trkpt lat="43.50463" lon="6.3947">
        <ele>176.1</ele>
        <time>2015-10-07T14:24:03Z</time>
      </trkpt>
      <trkpt lat="43.50467" lon="6.3945">
        <ele>176.1</ele>
        <time>2015-10-07T14:24:15Z</time>
      </trkpt>
      <trkpt lat="43.50471" lon="6.39439">
        <ele>175.9</ele>
        <time>2015-10-07T14:24:24Z</time>
      </trkpt>
      <trkpt lat="43.50475" lon="6.39431">
        <ele>176.9</ele>
        <time>2015-10-07T14:24:33Z</time>
      </trkpt>
      <trkpt lat="43.50481" lon="6.39422">
        <ele>176</ele>
        <time>2015-10-07T14:24:39Z</time>
      </trkpt>
      <trkpt lat="43.50487" lon="6.39414">
        <ele>175.7</ele>
        <time>2015-10-07T14:24:46Z</time>
      </trkpt>
      <trkpt lat="43.50493" lon="6.39404">
        <ele>175.7</ele>
        <time>2015-10-07T14:24:54Z</time>
      </trkpt>
      <trkpt lat="43.50499" lon="6.39397">
        <ele>175.5</ele>
        <time>2015-10-07T14:25:00Z</time>
      </trkpt>
      <trkpt lat="43.50501" lon="6.39386">
        <ele>175.8</ele>
        <time>2015-10-07T14:25:09Z</time>
      </trkpt>
      <trkpt lat="43.50501" lon="6.39384">
        <ele>175.6</ele>
        <time>2015-10-07T14:25:10Z</time>
      </trkpt>
      <trkpt lat="43.50505" lon="6.39363">
        <ele>176.8</ele>
        <time>2015-10-07T14:25:28Z</time>
      </trkpt>
      <trkpt lat="43.50502" lon="6.39352">
        <ele>177.5</ele>
        <time>2015-10-07T14:25:36Z</time>
      </trkpt>
      <trkpt lat="43.505" lon="6.39341">
        <ele>176.7</ele>
        <time>2015-10-07T14:25:50Z</time>
      </trkpt>
      <trkpt lat="43.50503" lon="6.3933">
        <ele>176.4</ele>
        <time>2015-10-07T14:25:57Z</time>
      </trkpt>
      <trkpt lat="43.50511" lon="6.39324">
        <ele>176.2</ele>
        <time>2015-10-07T14:26:05Z</time>
      </trkpt>
      <trkpt lat="43.50517" lon="6.39318">
        <ele>176.6</ele>
        <time>2015-10-07T14:26:12Z</time>
      </trkpt>
      <trkpt lat="43.50518" lon="6.39316">
        <ele>176.7</ele>
        <time>2015-10-07T14:26:13Z</time>
      </trkpt>
      <trkpt lat="43.5053" lon="6.39302">
        <ele>177</ele>
        <time>2015-10-07T14:26:29Z</time>
      </trkpt>
      <trkpt lat="43.50533" lon="6.39291">
        <ele>178.2</ele>
        <time>2015-10-07T14:26:38Z</time>
      </trkpt>
      <trkpt lat="43.50534" lon="6.39279">
        <ele>179.4</ele>
        <time>2015-10-07T14:26:44Z</time>
      </trkpt>
      <trkpt lat="43.50535" lon="6.39268">
        <ele>179.6</ele>
        <time>2015-10-07T14:26:53Z</time>
      </trkpt>
      <trkpt lat="43.50534" lon="6.39256">
        <ele>180.5</ele>
        <time>2015-10-07T14:27:02Z</time>
      </trkpt>
      <trkpt lat="43.50527" lon="6.39249">
        <ele>181.7</ele>
        <time>2015-10-07T14:27:13Z</time>
      </trkpt>
      <trkpt lat="43.50526" lon="6.39249">
        <ele>182.2</ele>
        <time>2015-10-07T14:27:14Z</time>
      </trkpt>
      <trkpt lat="43.50511" lon="6.39258">
        <ele>184.3</ele>
        <time>2015-10-07T14:27:36Z</time>
      </trkpt>
      <trkpt lat="43.50506" lon="6.39249">
        <ele>185.1</ele>
        <time>2015-10-07T14:27:49Z</time>
      </trkpt>
      <trkpt lat="43.50502" lon="6.39238">
        <ele>186</ele>
        <time>2015-10-07T14:27:59Z</time>
      </trkpt>
      <trkpt lat="43.50502" lon="6.39227">
        <ele>186.7</ele>
        <time>2015-10-07T14:28:10Z</time>
      </trkpt>
      <trkpt lat="43.50506" lon="6.39216">
        <ele>187</ele>
        <time>2015-10-07T14:28:16Z</time>
      </trkpt>
      <trkpt lat="43.50507" lon="6.39215">
        <ele>187</ele>
        <time>2015-10-07T14:28:17Z</time>
      </trkpt>
      <trkpt lat="43.50516" lon="6.39198">
        <ele>187.2</ele>
        <time>2015-10-07T14:28:29Z</time>
      </trkpt>
      <trkpt lat="43.50519" lon="6.39187">
        <ele>187.6</ele>
        <time>2015-10-07T14:28:37Z</time>
      </trkpt>
      <trkpt lat="43.50525" lon="6.3918">
        <ele>187</ele>
        <time>2015-10-07T14:29:18Z</time>
      </trkpt>
      <trkpt lat="43.50526" lon="6.3918">
        <ele>187.2</ele>
        <time>2015-10-07T14:29:19Z</time>
      </trkpt>
      <trkpt lat="43.50529" lon="6.39169">
        <ele>188.4</ele>
        <time>2015-10-07T14:31:24Z</time>
      </trkpt>
      <trkpt lat="43.50538" lon="6.39151">
        <ele>187.7</ele>
        <time>2015-10-07T14:31:41Z</time>
      </trkpt>
      <trkpt lat="43.50543" lon="6.39141">
        <ele>189.8</ele>
        <time>2015-10-07T14:31:52Z</time>
      </trkpt>
      <trkpt lat="43.50545" lon="6.39131">
        <ele>189.8</ele>
        <time>2015-10-07T14:31:59Z</time>
      </trkpt>
      <trkpt lat="43.50551" lon="6.39122">
        <ele>189.2</ele>
        <time>2015-10-07T14:32:06Z</time>
      </trkpt>
      <trkpt lat="43.50556" lon="6.39113">
        <ele>190.8</ele>
        <time>2015-10-07T14:32:14Z</time>
      </trkpt>
      <trkpt lat="43.5056" lon="6.39103">
        <ele>190.9</ele>
        <time>2015-10-07T14:32:24Z</time>
      </trkpt>
      <trkpt lat="43.50561" lon="6.39102">
        <ele>191</ele>
        <time>2015-10-07T14:32:25Z</time>
      </trkpt>
      <trkpt lat="43.50568" lon="6.39083">
        <ele>192.2</ele>
        <time>2015-10-07T14:32:39Z</time>
      </trkpt>
      <trkpt lat="43.50573" lon="6.39075">
        <ele>192.4</ele>
        <time>2015-10-07T14:32:49Z</time>
      </trkpt>
      <trkpt lat="43.50577" lon="6.39068">
        <ele>192.4</ele>
        <time>2015-10-07T14:32:53Z</time>
      </trkpt>
      <trkpt lat="43.50582" lon="6.39059">
        <ele>192.5</ele>
        <time>2015-10-07T14:32:58Z</time>
      </trkpt>
      <trkpt lat="43.50586" lon="6.39049">
        <ele>191.6</ele>
        <time>2015-10-07T14:33:04Z</time>
      </trkpt>
      <trkpt lat="43.50586" lon="6.39037">
        <ele>192.4</ele>
        <time>2015-10-07T14:33:15Z</time>
      </trkpt>
      <trkpt lat="43.50582" lon="6.39027">
        <ele>192.4</ele>
        <time>2015-10-07T14:33:25Z</time>
      </trkpt>
      <trkpt lat="43.50582" lon="6.39025">
        <ele>192.5</ele>
        <time>2015-10-07T14:33:26Z</time>
      </trkpt>
      <trkpt lat="43.50576" lon="6.39005">
        <ele>193.2</ele>
        <time>2015-10-07T14:33:41Z</time>
      </trkpt>
      <trkpt lat="43.50574" lon="6.38993">
        <ele>194</ele>
        <time>2015-10-07T14:33:49Z</time>
      </trkpt>
      <trkpt lat="43.50574" lon="6.38982">
        <ele>193.7</ele>
        <time>2015-10-07T14:33:55Z</time>
      </trkpt>
      <trkpt lat="43.50573" lon="6.3897">
        <ele>194.1</ele>
        <time>2015-10-07T14:34:00Z</time>
      </trkpt>
      <trkpt lat="43.50572" lon="6.38958">
        <ele>193</ele>
        <time>2015-10-07T14:34:06Z</time>
      </trkpt>
      <trkpt lat="43.50569" lon="6.38947">
        <ele>194.7</ele>
        <time>2015-10-07T14:34:13Z</time>
      </trkpt>
      <trkpt lat="43.50566" lon="6.38937">
        <ele>194.9</ele>
        <time>2015-10-07T14:34:19Z</time>
      </trkpt>
      <trkpt lat="43.50563" lon="6.38926">
        <ele>193.9</ele>
        <time>2015-10-07T14:34:29Z</time>
      </trkpt>
      <trkpt lat="43.50564" lon="6.38925">
        <ele>194.1</ele>
        <time>2015-10-07T14:34:30Z</time>
      </trkpt>
      <trkpt lat="43.50573" lon="6.38911">
        <ele>194.3</ele>
        <time>2015-10-07T14:35:37Z</time>
      </trkpt>
      <trkpt lat="43.50574" lon="6.38911">
        <ele>194.4</ele>
        <time>2015-10-07T14:35:38Z</time>
      </trkpt>
      <trkpt lat="43.5059" lon="6.38908">
        <ele>191.9</ele>
        <time>2015-10-07T14:36:06Z</time>
      </trkpt>
      <trkpt lat="43.50599" lon="6.38909">
        <ele>191.9</ele>
        <time>2015-10-07T14:36:16Z</time>
      </trkpt>
      <trkpt lat="43.50607" lon="6.38907">
        <ele>191.4</ele>
        <time>2015-10-07T14:36:25Z</time>
      </trkpt>
      <trkpt lat="43.50615" lon="6.38911">
        <ele>190.1</ele>
        <time>2015-10-07T14:36:36Z</time>
      </trkpt>
      <trkpt lat="43.50622" lon="6.38913">
        <ele>188.4</ele>
        <time>2015-10-07T14:36:51Z</time>
      </trkpt>
      <trkpt lat="43.50623" lon="6.38915">
        <ele>188.1</ele>
        <time>2015-10-07T14:36:52Z</time>
      </trkpt>
      <trkpt lat="43.50629" lon="6.38933">
        <ele>187.5</ele>
        <time>2015-10-07T14:37:06Z</time>
      </trkpt>
      <trkpt lat="43.5063" lon="6.38944">
        <ele>187.3</ele>
        <time>2015-10-07T14:37:13Z</time>
      </trkpt>
      <trkpt lat="43.50635" lon="6.38954">
        <ele>186.4</ele>
        <time>2015-10-07T14:37:21Z</time>
      </trkpt>
      <trkpt lat="43.50638" lon="6.38965">
        <ele>187.6</ele>
        <time>2015-10-07T14:37:29Z</time>
      </trkpt>
      <trkpt lat="43.50643" lon="6.38975">
        <ele>186.6</ele>
        <time>2015-10-07T14:37:44Z</time>
      </trkpt>
      <trkpt lat="43.50646" lon="6.38985">
        <ele>185.5</ele>
        <time>2015-10-07T14:37:57Z</time>
      </trkpt>
      <trkpt lat="43.50647" lon="6.38987">
        <ele>185.2</ele>
        <time>2015-10-07T14:37:58Z</time>
      </trkpt>
      <trkpt lat="43.50658" lon="6.38999">
        <ele>182.9</ele>
        <time>2015-10-07T14:38:13Z</time>
      </trkpt>
      <trkpt lat="43.50667" lon="6.38997">
        <ele>181.6</ele>
        <time>2015-10-07T14:38:28Z</time>
      </trkpt>
      <trkpt lat="43.50675" lon="6.39001">
        <ele>181</ele>
        <time>2015-10-07T14:38:38Z</time>
      </trkpt>
      <trkpt lat="43.50683" lon="6.38999">
        <ele>180.1</ele>
        <time>2015-10-07T14:38:44Z</time>
      </trkpt>
      <trkpt lat="43.50691" lon="6.38997">
        <ele>179.3</ele>
        <time>2015-10-07T14:38:49Z</time>
      </trkpt>
      <trkpt lat="43.50698" lon="6.38991">
        <ele>178.9</ele>
        <time>2015-10-07T14:38:55Z</time>
      </trkpt>
      <trkpt lat="43.50706" lon="6.38988">
        <ele>177.7</ele>
        <time>2015-10-07T14:39:01Z</time>
      </trkpt>
      <trkpt lat="43.50707" lon="6.38987">
        <ele>176.9</ele>
        <time>2015-10-07T14:39:02Z</time>
      </trkpt>
      <trkpt lat="43.50719" lon="6.38974">
        <ele>176.5</ele>
        <time>2015-10-07T14:39:26Z</time>
      </trkpt>
      <trkpt lat="43.50721" lon="6.38963">
        <ele>176.4</ele>
        <time>2015-10-07T14:39:34Z</time>
      </trkpt>
      <trkpt lat="43.50724" lon="6.38951">
        <ele>175.9</ele>
        <time>2015-10-07T14:39:45Z</time>
      </trkpt>
      <trkpt lat="43.50723" lon="6.3894">
        <ele>177.7</ele>
        <time>2015-10-07T14:40:07Z</time>
      </trkpt>
      <trkpt lat="43.50722" lon="6.38939">
        <ele>177.8</ele>
        <time>2015-10-07T14:40:08Z</time>
      </trkpt>
      <trkpt lat="43.50715" lon="6.38918">
        <ele>179.5</ele>
        <time>2015-10-07T14:40:25Z</time>
      </trkpt>
      <trkpt lat="43.50712" lon="6.38907">
        <ele>179.3</ele>
        <time>2015-10-07T14:40:33Z</time>
      </trkpt>
      <trkpt lat="43.50716" lon="6.38896">
        <ele>179.1</ele>
        <time>2015-10-07T14:40:40Z</time>
      </trkpt>
      <trkpt lat="43.50719" lon="6.38886">
        <ele>178.8</ele>
        <time>2015-10-07T14:40:47Z</time>
      </trkpt>
      <trkpt lat="43.50722" lon="6.38876">
        <ele>179.1</ele>
        <time>2015-10-07T14:40:50Z</time>
      </trkpt>
      <trkpt lat="43.50726" lon="6.38866">
        <ele>178.7</ele>
        <time>2015-10-07T14:40:54Z</time>
      </trkpt>
      <trkpt lat="43.50732" lon="6.38859">
        <ele>179.3</ele>
        <time>2015-10-07T14:41:00Z</time>
      </trkpt>
      <trkpt lat="43.50739" lon="6.3886">
        <ele>179.3</ele>
        <time>2015-10-07T14:41:06Z</time>
      </trkpt>
      <trkpt lat="43.50748" lon="6.38863">
        <ele>179.3</ele>
        <time>2015-10-07T14:41:13Z</time>
      </trkpt>
      <trkpt lat="43.50749" lon="6.38864">
        <ele>179.7</ele>
        <time>2015-10-07T14:41:14Z</time>
      </trkpt>
      <trkpt lat="43.5076" lon="6.3888">
        <ele>181.1</ele>
        <time>2015-10-07T14:41:34Z</time>
      </trkpt>
      <trkpt lat="43.50759" lon="6.38892">
        <ele>182.1</ele>
        <time>2015-10-07T14:41:45Z</time>
      </trkpt>
      <trkpt lat="43.50759" lon="6.38903">
        <ele>183.9</ele>
        <time>2015-10-07T14:41:54Z</time>
      </trkpt>
      <trkpt lat="43.50762" lon="6.38913">
        <ele>184.1</ele>
        <time>2015-10-07T14:41:59Z</time>
      </trkpt>
      <trkpt lat="43.50763" lon="6.38924">
        <ele>186.1</ele>
        <time>2015-10-07T14:42:06Z</time>
      </trkpt>
      <trkpt lat="43.50768" lon="6.38934">
        <ele>187.1</ele>
        <time>2015-10-07T14:42:17Z</time>
      </trkpt>
      <trkpt lat="43.50768" lon="6.38935">
        <ele>187.3</ele>
        <time>2015-10-07T14:42:18Z</time>
      </trkpt>
      <trkpt lat="43.50775" lon="6.38955">
        <ele>190.3</ele>
        <time>2015-10-07T14:42:34Z</time>
      </trkpt>
      <trkpt lat="43.50779" lon="6.38964">
        <ele>189.9</ele>
        <time>2015-10-07T14:42:42Z</time>
      </trkpt>
      <trkpt lat="43.50786" lon="6.38971">
        <ele>190</ele>
        <time>2015-10-07T14:42:52Z</time>
      </trkpt>
      <trkpt lat="43.50793" lon="6.38979">
        <ele>189.9</ele>
        <time>2015-10-07T14:43:03Z</time>
      </trkpt>
      <trkpt lat="43.508" lon="6.38985">
        <ele>190</ele>
        <time>2015-10-07T14:43:11Z</time>
      </trkpt>
      <trkpt lat="43.50806" lon="6.38992">
        <ele>189.3</ele>
        <time>2015-10-07T14:43:20Z</time>
      </trkpt>
      <trkpt lat="43.50807" lon="6.38993">
        <ele>189.2</ele>
        <time>2015-10-07T14:43:21Z</time>
      </trkpt>
      <trkpt lat="43.50821" lon="6.39002">
        <ele>188.7</ele>
        <time>2015-10-07T14:43:35Z</time>
      </trkpt>
      <trkpt lat="43.50828" lon="6.39008">
        <ele>188.9</ele>
        <time>2015-10-07T14:43:40Z</time>
      </trkpt>
      <trkpt lat="43.50836" lon="6.39013">
        <ele>188.9</ele>
        <time>2015-10-07T14:43:48Z</time>
      </trkpt>
      <trkpt lat="43.50843" lon="6.39018">
        <ele>189.5</ele>
        <time>2015-10-07T14:43:57Z</time>
      </trkpt>
      <trkpt lat="43.50852" lon="6.39017">
        <ele>190.2</ele>
        <time>2015-10-07T14:44:10Z</time>
      </trkpt>
      <trkpt lat="43.50859" lon="6.39023">
        <ele>191.8</ele>
        <time>2015-10-07T14:44:21Z</time>
      </trkpt>
      <trkpt lat="43.5086" lon="6.39023">
        <ele>191.7</ele>
        <time>2015-10-07T14:44:22Z</time>
      </trkpt>
      <trkpt lat="43.50873" lon="6.39012">
        <ele>192.7</ele>
        <time>2015-10-07T14:45:09Z</time>
      </trkpt>
      <trkpt lat="43.50872" lon="6.39">
        <ele>194.1</ele>
        <time>2015-10-07T14:46:50Z</time>
      </trkpt>
      <trkpt lat="43.50872" lon="6.38999">
        <ele>194.3</ele>
        <time>2015-10-07T14:46:51Z</time>
      </trkpt>
      <trkpt lat="43.50868" lon="6.38977">
        <ele>195.8</ele>
        <time>2015-10-07T14:47:14Z</time>
      </trkpt>
      <trkpt lat="43.50867" lon="6.38966">
        <ele>196.8</ele>
        <time>2015-10-07T14:47:21Z</time>
      </trkpt>
      <trkpt lat="43.50869" lon="6.38956">
        <ele>197.4</ele>
        <time>2015-10-07T14:47:29Z</time>
      </trkpt>
      <trkpt lat="43.50873" lon="6.38945">
        <ele>197.7</ele>
        <time>2015-10-07T14:47:35Z</time>
      </trkpt>
      <trkpt lat="43.50876" lon="6.38935">
        <ele>197.6</ele>
        <time>2015-10-07T14:47:40Z</time>
      </trkpt>
      <trkpt lat="43.50878" lon="6.38925">
        <ele>198.1</ele>
        <time>2015-10-07T14:47:49Z</time>
      </trkpt>
      <trkpt lat="43.50882" lon="6.38915">
        <ele>197.3</ele>
        <time>2015-10-07T14:47:54Z</time>
      </trkpt>
      <trkpt lat="43.50883" lon="6.38913">
        <ele>197.7</ele>
        <time>2015-10-07T14:47:55Z</time>
      </trkpt>
      <trkpt lat="43.50891" lon="6.38897">
        <ele>198.7</ele>
        <time>2015-10-07T14:48:06Z</time>
      </trkpt>
      <trkpt lat="43.50897" lon="6.3889">
        <ele>197.6</ele>
        <time>2015-10-07T14:48:12Z</time>
      </trkpt>
      <trkpt lat="43.50904" lon="6.38882">
        <ele>197.7</ele>
        <time>2015-10-07T14:48:22Z</time>
      </trkpt>
      <trkpt lat="43.50912" lon="6.38879">
        <ele>198.4</ele>
        <time>2015-10-07T14:48:30Z</time>
      </trkpt>
      <trkpt lat="43.50919" lon="6.38871">
        <ele>199.4</ele>
        <time>2015-10-07T14:48:35Z</time>
      </trkpt>
      <trkpt lat="43.50927" lon="6.38866">
        <ele>198.6</ele>
        <time>2015-10-07T14:48:40Z</time>
      </trkpt>
      <trkpt lat="43.50935" lon="6.38867">
        <ele>199.5</ele>
        <time>2015-10-07T14:48:46Z</time>
      </trkpt>
      <trkpt lat="43.50943" lon="6.3887">
        <ele>198.1</ele>
        <time>2015-10-07T14:48:53Z</time>
      </trkpt>
      <trkpt lat="43.50951" lon="6.38869">
        <ele>199.1</ele>
        <time>2015-10-07T14:48:59Z</time>
      </trkpt>
      <trkpt lat="43.50952" lon="6.3887">
        <ele>199.2</ele>
        <time>2015-10-07T14:49:00Z</time>
      </trkpt>
      <trkpt lat="43.50965" lon="6.38862">
        <ele>199.8</ele>
        <time>2015-10-07T14:49:22Z</time>
      </trkpt>
      <trkpt lat="43.50973" lon="6.38859">
        <ele>200.4</ele>
        <time>2015-10-07T14:49:38Z</time>
      </trkpt>
      <trkpt lat="43.5098" lon="6.3885">
        <ele>199.9</ele>
        <time>2015-10-07T14:50:06Z</time>
      </trkpt>
      <trkpt lat="43.50979" lon="6.38849">
        <ele>200.1</ele>
        <time>2015-10-07T14:50:07Z</time>
      </trkpt>
      <trkpt lat="43.50976" lon="6.38869">
        <ele>200.4</ele>
        <time>2015-10-07T14:51:03Z</time>
      </trkpt>
      <trkpt lat="43.50968" lon="6.38874">
        <ele>199.9</ele>
        <time>2015-10-07T14:51:14Z</time>
      </trkpt>
      <trkpt lat="43.50968" lon="6.38875">
        <ele>199.6</ele>
        <time>2015-10-07T14:51:15Z</time>
      </trkpt>
      <trkpt lat="43.50953" lon="6.38881">
        <ele>198.4</ele>
        <time>2015-10-07T14:51:25Z</time>
      </trkpt>
      <trkpt lat="43.50945" lon="6.38882">
        <ele>198.5</ele>
        <time>2015-10-07T14:51:35Z</time>
      </trkpt>
      <trkpt lat="43.50937" lon="6.38885">
        <ele>198.2</ele>
        <time>2015-10-07T14:51:44Z</time>
      </trkpt>
      <trkpt lat="43.50929" lon="6.38883">
        <ele>198.7</ele>
        <time>2015-10-07T14:51:53Z</time>
      </trkpt>
      <trkpt lat="43.50921" lon="6.38885">
        <ele>197.4</ele>
        <time>2015-10-07T14:51:58Z</time>
      </trkpt>
      <trkpt lat="43.50913" lon="6.38885">
        <ele>198</ele>
        <time>2015-10-07T14:52:03Z</time>
      </trkpt>
      <trkpt lat="43.50905" lon="6.38886">
        <ele>198.3</ele>
        <time>2015-10-07T14:52:20Z</time>
      </trkpt>
      <trkpt lat="43.50904" lon="6.38887">
        <ele>198.6</ele>
        <time>2015-10-07T14:52:21Z</time>
      </trkpt>
      <trkpt lat="43.50891" lon="6.38899">
        <ele>198.2</ele>
        <time>2015-10-07T14:52:43Z</time>
      </trkpt>
      <trkpt lat="43.50899" lon="6.38895">
        <ele>196.8</ele>
        <time>2015-10-07T14:53:05Z</time>
      </trkpt>
      <trkpt lat="43.50905" lon="6.38886">
        <ele>196.9</ele>
        <time>2015-10-07T14:53:34Z</time>
      </trkpt>
      <trkpt lat="43.50906" lon="6.38886">
        <ele>196.9</ele>
        <time>2015-10-07T14:53:35Z</time>
      </trkpt>
      <trkpt lat="43.50921" lon="6.38884">
        <ele>197.5</ele>
        <time>2015-10-07T14:53:50Z</time>
      </trkpt>
      <trkpt lat="43.50927" lon="6.38877">
        <ele>197.8</ele>
        <time>2015-10-07T14:53:57Z</time>
      </trkpt>
      <trkpt lat="43.50935" lon="6.38875">
        <ele>197.5</ele>
        <time>2015-10-07T14:54:09Z</time>
      </trkpt>
      <trkpt lat="43.50944" lon="6.38873">
        <ele>197.5</ele>
        <time>2015-10-07T14:54:16Z</time>
      </trkpt>
      <trkpt lat="43.50952" lon="6.38873">
        <ele>198.9</ele>
        <time>2015-10-07T14:54:24Z</time>
      </trkpt>
      <trkpt lat="43.50961" lon="6.3887">
        <ele>199</ele>
        <time>2015-10-07T14:54:33Z</time>
      </trkpt>
      <trkpt lat="43.50968" lon="6.38866">
        <ele>200.3</ele>
        <time>2015-10-07T14:54:42Z</time>
      </trkpt>
      <trkpt lat="43.50969" lon="6.38865">
        <ele>199.9</ele>
        <time>2015-10-07T14:54:43Z</time>
      </trkpt>
      <trkpt lat="43.50982" lon="6.38854">
        <ele>199.9</ele>
        <time>2015-10-07T14:55:00Z</time>
      </trkpt>
      <trkpt lat="43.50988" lon="6.38847">
        <ele>200.1</ele>
        <time>2015-10-07T14:55:05Z</time>
      </trkpt>
      <trkpt lat="43.50995" lon="6.38842">
        <ele>200.3</ele>
        <time>2015-10-07T14:55:11Z</time>
      </trkpt>
      <trkpt lat="43.51002" lon="6.38835">
        <ele>200.9</ele>
        <time>2015-10-07T14:55:20Z</time>
      </trkpt>
      <trkpt lat="43.51009" lon="6.3883">
        <ele>201</ele>
        <time>2015-10-07T14:55:25Z</time>
      </trkpt>
      <trkpt lat="43.51017" lon="6.38825">
        <ele>201</ele>
        <time>2015-10-07T14:55:31Z</time>
      </trkpt>
      <trkpt lat="43.51023" lon="6.38817">
        <ele>200.4</ele>
        <time>2015-10-07T14:55:42Z</time>
      </trkpt>
      <trkpt lat="43.51031" lon="6.38818">
        <ele>201.3</ele>
        <time>2015-10-07T14:55:52Z</time>
      </trkpt>
      <trkpt lat="43.51032" lon="6.38818">
        <ele>201.3</ele>
        <time>2015-10-07T14:55:53Z</time>
      </trkpt>
      <trkpt lat="43.51048" lon="6.38817">
        <ele>203.5</ele>
        <time>2015-10-07T14:56:14Z</time>
      </trkpt>
      <trkpt lat="43.51056" lon="6.38815">
        <ele>203</ele>
        <time>2015-10-07T14:56:27Z</time>
      </trkpt>
      <trkpt lat="43.51063" lon="6.38807">
        <ele>204.8</ele>
        <time>2015-10-07T14:56:37Z</time>
      </trkpt>
      <trkpt lat="43.51067" lon="6.38796">
        <ele>206.3</ele>
        <time>2015-10-07T14:56:49Z</time>
      </trkpt>
      <trkpt lat="43.51072" lon="6.38788">
        <ele>207.3</ele>
        <time>2015-10-07T14:56:57Z</time>
      </trkpt>
      <trkpt lat="43.51073" lon="6.38786">
        <ele>207.5</ele>
        <time>2015-10-07T14:56:58Z</time>
      </trkpt>
      <trkpt lat="43.51081" lon="6.3877">
        <ele>208.4</ele>
        <time>2015-10-07T14:57:14Z</time>
      </trkpt>
      <trkpt lat="43.51084" lon="6.38759">
        <ele>208.7</ele>
        <time>2015-10-07T14:57:20Z</time>
      </trkpt>
      <trkpt lat="43.5109" lon="6.3875">
        <ele>211.5</ele>
        <time>2015-10-07T14:57:31Z</time>
      </trkpt>
      <trkpt lat="43.51096" lon="6.38741">
        <ele>211.1</ele>
        <time>2015-10-07T14:57:39Z</time>
      </trkpt>
      <trkpt lat="43.51097" lon="6.38729">
        <ele>211.3</ele>
        <time>2015-10-07T14:57:46Z</time>
      </trkpt>
      <trkpt lat="43.51097" lon="6.38719">
        <ele>210.8</ele>
        <time>2015-10-07T14:57:55Z</time>
      </trkpt>
      <trkpt lat="43.51098" lon="6.38708">
        <ele>210.8</ele>
        <time>2015-10-07T14:58:00Z</time>
      </trkpt>
      <trkpt lat="43.51097" lon="6.38706">
        <ele>210.8</ele>
        <time>2015-10-07T14:58:01Z</time>
      </trkpt>
      <trkpt lat="43.51093" lon="6.38685">
        <ele>208.9</ele>
        <time>2015-10-07T14:58:30Z</time>
      </trkpt>
      <trkpt lat="43.51088" lon="6.38677">
        <ele>209.4</ele>
        <time>2015-10-07T14:58:37Z</time>
      </trkpt>
      <trkpt lat="43.51083" lon="6.38667">
        <ele>209.3</ele>
        <time>2015-10-07T14:58:45Z</time>
      </trkpt>
      <trkpt lat="43.51079" lon="6.38657">
        <ele>208.3</ele>
        <time>2015-10-07T14:58:52Z</time>
      </trkpt>
      <trkpt lat="43.51077" lon="6.38645">
        <ele>208.5</ele>
        <time>2015-10-07T14:59:01Z</time>
      </trkpt>
      <trkpt lat="43.51077" lon="6.38642">
        <ele>208.4</ele>
        <time>2015-10-07T14:59:02Z</time>
      </trkpt>
      <trkpt lat="43.51081" lon="6.38623">
        <ele>208.5</ele>
        <time>2015-10-07T14:59:13Z</time>
      </trkpt>
      <trkpt lat="43.51086" lon="6.38613">
        <ele>208</ele>
        <time>2015-10-07T14:59:20Z</time>
      </trkpt>
      <trkpt lat="43.51092" lon="6.38605">
        <ele>208.3</ele>
        <time>2015-10-07T14:59:28Z</time>
      </trkpt>
      <trkpt lat="43.51098" lon="6.38596">
        <ele>208.8</ele>
        <time>2015-10-07T14:59:33Z</time>
      </trkpt>
      <trkpt lat="43.51105" lon="6.3859">
        <ele>209.5</ele>
        <time>2015-10-07T14:59:40Z</time>
      </trkpt>
      <trkpt lat="43.51113" lon="6.38586">
        <ele>210.8</ele>
        <time>2015-10-07T14:59:50Z</time>
      </trkpt>
      <trkpt lat="43.51122" lon="6.38588">
        <ele>211.1</ele>
        <time>2015-10-07T15:00:00Z</time>
      </trkpt>
      <trkpt lat="43.51131" lon="6.38592">
        <ele>211.5</ele>
        <time>2015-10-07T15:00:10Z</time>
      </trkpt>
      <trkpt lat="43.51132" lon="6.38592">
        <ele>211.2</ele>
        <time>2015-10-07T15:00:11Z</time>
      </trkpt>
      <trkpt lat="43.51147" lon="6.38594">
        <ele>212.8</ele>
        <time>2015-10-07T15:00:26Z</time>
      </trkpt>
      <trkpt lat="43.51155" lon="6.38594">
        <ele>212.5</ele>
        <time>2015-10-07T15:00:31Z</time>
      </trkpt>
      <trkpt lat="43.51163" lon="6.38597">
        <ele>212.7</ele>
        <time>2015-10-07T15:00:38Z</time>
      </trkpt>
      <trkpt lat="43.5117" lon="6.38605">
        <ele>214.1</ele>
        <time>2015-10-07T15:00:48Z</time>
      </trkpt>
      <trkpt lat="43.51177" lon="6.3861">
        <ele>214.7</ele>
        <time>2015-10-07T15:00:55Z</time>
      </trkpt>
      <trkpt lat="43.51185" lon="6.3861">
        <ele>213.6</ele>
        <time>2015-10-07T15:01:04Z</time>
      </trkpt>
      <trkpt lat="43.51194" lon="6.38612">
        <ele>214.3</ele>
        <time>2015-10-07T15:01:12Z</time>
      </trkpt>
      <trkpt lat="43.51195" lon="6.38612">
        <ele>214.2</ele>
        <time>2015-10-07T15:01:13Z</time>
      </trkpt>
      <trkpt lat="43.5121" lon="6.38619">
        <ele>211.8</ele>
        <time>2015-10-07T15:01:30Z</time>
      </trkpt>
      <trkpt lat="43.51213" lon="6.38607">
        <ele>212.6</ele>
        <time>2015-10-07T15:01:56Z</time>
      </trkpt>
      <trkpt lat="43.51216" lon="6.38596">
        <ele>213.1</ele>
        <time>2015-10-07T15:02:04Z</time>
      </trkpt>
      <trkpt lat="43.51219" lon="6.38585">
        <ele>211.7</ele>
        <time>2015-10-07T15:02:14Z</time>
      </trkpt>
      <trkpt lat="43.51219" lon="6.38583">
        <ele>211.5</ele>
        <time>2015-10-07T15:02:15Z</time>
      </trkpt>
      <trkpt lat="43.51223" lon="6.38563">
        <ele>211.2</ele>
        <time>2015-10-07T15:02:27Z</time>
      </trkpt>
      <trkpt lat="43.51228" lon="6.38553">
        <ele>211.5</ele>
        <time>2015-10-07T15:02:37Z</time>
      </trkpt>
      <trkpt lat="43.51231" lon="6.38543">
        <ele>211</ele>
        <time>2015-10-07T15:02:44Z</time>
      </trkpt>
      <trkpt lat="43.51236" lon="6.38533">
        <ele>211.4</ele>
        <time>2015-10-07T15:02:52Z</time>
      </trkpt>
      <trkpt lat="43.51242" lon="6.38525">
        <ele>210.5</ele>
        <time>2015-10-07T15:03:01Z</time>
      </trkpt>
      <trkpt lat="43.51249" lon="6.38519">
        <ele>211.5</ele>
        <time>2015-10-07T15:03:10Z</time>
      </trkpt>
      <trkpt lat="43.51255" lon="6.38511">
        <ele>212</ele>
        <time>2015-10-07T15:03:19Z</time>
      </trkpt>
      <trkpt lat="43.51256" lon="6.3851">
        <ele>211.9</ele>
        <time>2015-10-07T15:03:20Z</time>
      </trkpt>
      <trkpt lat="43.51263" lon="6.3849">
        <ele>212.4</ele>
        <time>2015-10-07T15:03:41Z</time>
      </trkpt>
      <trkpt lat="43.51265" lon="6.38479">
        <ele>213.6</ele>
        <time>2015-10-07T15:03:50Z</time>
      </trkpt>
      <trkpt lat="43.51265" lon="6.38467">
        <ele>214.6</ele>
        <time>2015-10-07T15:04:03Z</time>
      </trkpt>
      <trkpt lat="43.51266" lon="6.38457">
        <ele>215.1</ele>
        <time>2015-10-07T15:04:10Z</time>
      </trkpt>
      <trkpt lat="43.51266" lon="6.38446">
        <ele>215.3</ele>
        <time>2015-10-07T15:04:20Z</time>
      </trkpt>
      <trkpt lat="43.51266" lon="6.38444">
        <ele>215.4</ele>
        <time>2015-10-07T15:04:21Z</time>
      </trkpt>
      <trkpt lat="43.51276" lon="6.38427">
        <ele>217.1</ele>
        <time>2015-10-07T15:04:46Z</time>
      </trkpt>
      <trkpt lat="43.51281" lon="6.38418">
        <ele>217.3</ele>
        <time>2015-10-07T15:04:59Z</time>
      </trkpt>
      <trkpt lat="43.51286" lon="6.38408">
        <ele>218.1</ele>
        <time>2015-10-07T15:05:08Z</time>
      </trkpt>
      <trkpt lat="43.51291" lon="6.38398">
        <ele>218.7</ele>
        <time>2015-10-07T15:05:17Z</time>
      </trkpt>
      <trkpt lat="43.51297" lon="6.38391">
        <ele>218.5</ele>
        <time>2015-10-07T15:05:23Z</time>
      </trkpt>
      <trkpt lat="43.51298" lon="6.3839">
        <ele>218.6</ele>
        <time>2015-10-07T15:05:24Z</time>
      </trkpt>
      <trkpt lat="43.5131" lon="6.38377">
        <ele>218.7</ele>
        <time>2015-10-07T15:05:41Z</time>
      </trkpt>
      <trkpt lat="43.51317" lon="6.38371">
        <ele>219.3</ele>
        <time>2015-10-07T15:05:48Z</time>
      </trkpt>
      <trkpt lat="43.51323" lon="6.38364">
        <ele>220</ele>
        <time>2015-10-07T15:05:54Z</time>
      </trkpt>
      <trkpt lat="43.51329" lon="6.38355">
        <ele>219.9</ele>
        <time>2015-10-07T15:06:04Z</time>
      </trkpt>
      <trkpt lat="43.51335" lon="6.38346">
        <ele>219.7</ele>
        <time>2015-10-07T15:06:14Z</time>
      </trkpt>
      <trkpt lat="43.5134" lon="6.38337">
        <ele>218.9</ele>
        <time>2015-10-07T15:06:23Z</time>
      </trkpt>
      <trkpt lat="43.51346" lon="6.38328">
        <ele>219.5</ele>
        <time>2015-10-07T15:06:31Z</time>
      </trkpt>
      <trkpt lat="43.51347" lon="6.38327">
        <ele>219.8</ele>
        <time>2015-10-07T15:06:33Z</time>
      </trkpt>
      <trkpt lat="43.51359" lon="6.38314">
        <ele>220.2</ele>
        <time>2015-10-07T15:06:47Z</time>
      </trkpt>
      <trkpt lat="43.51364" lon="6.38306">
        <ele>220.4</ele>
        <time>2015-10-07T15:06:54Z</time>
      </trkpt>
      <trkpt lat="43.51368" lon="6.38295">
        <ele>221.2</ele>
        <time>2015-10-07T15:07:03Z</time>
      </trkpt>
      <trkpt lat="43.51375" lon="6.38288">
        <ele>221.2</ele>
        <time>2015-10-07T15:07:12Z</time>
      </trkpt>
      <trkpt lat="43.51382" lon="6.38281">
        <ele>221.1</ele>
        <time>2015-10-07T15:07:21Z</time>
      </trkpt>
      <trkpt lat="43.5139" lon="6.38282">
        <ele>222.2</ele>
        <time>2015-10-07T15:07:34Z</time>
      </trkpt>
      <trkpt lat="43.51391" lon="6.38282">
        <ele>221.8</ele>
        <time>2015-10-07T15:07:35Z</time>
      </trkpt>
      <trkpt lat="43.51405" lon="6.38288">
        <ele>219.4</ele>
        <time>2015-10-07T15:08:03Z</time>
      </trkpt>
      <trkpt lat="43.51409" lon="6.38298">
        <ele>219.5</ele>
        <time>2015-10-07T15:08:08Z</time>
      </trkpt>
      <trkpt lat="43.51412" lon="6.38308">
        <ele>219.2</ele>
        <time>2015-10-07T15:08:14Z</time>
      </trkpt>
      <trkpt lat="43.51417" lon="6.38316">
        <ele>218.7</ele>
        <time>2015-10-07T15:08:20Z</time>
      </trkpt>
      <trkpt lat="43.51421" lon="6.38327">
        <ele>218.7</ele>
        <time>2015-10-07T15:08:25Z</time>
      </trkpt>
      <trkpt lat="43.51426" lon="6.38336">
        <ele>218</ele>
        <time>2015-10-07T15:08:31Z</time>
      </trkpt>
      <trkpt lat="43.5143" lon="6.38347">
        <ele>217.5</ele>
        <time>2015-10-07T15:08:37Z</time>
      </trkpt>
      <trkpt lat="43.5143" lon="6.38347">
        <ele>217.5</ele>
        <time>2015-10-07T15:08:38Z</time>
      </trkpt>
      <trkpt lat="43.51447" lon="6.38355">
        <ele>219.5</ele>
        <time>2015-10-07T15:09:31Z</time>
      </trkpt>
      <trkpt lat="43.51455" lon="6.38352">
        <ele>219.3</ele>
        <time>2015-10-07T15:09:40Z</time>
      </trkpt>
      <trkpt lat="43.51456" lon="6.38352">
        <ele>219</ele>
        <time>2015-10-07T15:09:41Z</time>
      </trkpt>
      <trkpt lat="43.51471" lon="6.38345">
        <ele>219.6</ele>
        <time>2015-10-07T15:09:56Z</time>
      </trkpt>
      <trkpt lat="43.51479" lon="6.3834">
        <ele>220.6</ele>
        <time>2015-10-07T15:10:09Z</time>
      </trkpt>
      <trkpt lat="43.51474" lon="6.38349">
        <ele>217.9</ele>
        <time>2015-10-07T15:12:29Z</time>
      </trkpt>
      <trkpt lat="43.51473" lon="6.3835">
        <ele>218</ele>
        <time>2015-10-07T15:12:30Z</time>
      </trkpt>
      <trkpt lat="43.51458" lon="6.38358">
        <ele>216.5</ele>
        <time>2015-10-07T15:12:54Z</time>
      </trkpt>
      <trkpt lat="43.5145" lon="6.38357">
        <ele>217</ele>
        <time>2015-10-07T15:13:00Z</time>
      </trkpt>
      <trkpt lat="43.51442" lon="6.3836">
        <ele>215.8</ele>
        <time>2015-10-07T15:13:08Z</time>
      </trkpt>
      <trkpt lat="43.51434" lon="6.38364">
        <ele>214.5</ele>
        <time>2015-10-07T15:13:16Z</time>
      </trkpt>
      <trkpt lat="43.51427" lon="6.38372">
        <ele>214.1</ele>
        <time>2015-10-07T15:13:25Z</time>
      </trkpt>
      <trkpt lat="43.51423" lon="6.38381">
        <ele>213.7</ele>
        <time>2015-10-07T15:13:39Z</time>
      </trkpt>
      <trkpt lat="43.51422" lon="6.38382">
        <ele>213.7</ele>
        <time>2015-10-07T15:13:40Z</time>
      </trkpt>
      <trkpt lat="43.51421" lon="6.38403">
        <ele>211.1</ele>
        <time>2015-10-07T15:14:00Z</time>
      </trkpt>
      <trkpt lat="43.51424" lon="6.38414">
        <ele>211</ele>
        <time>2015-10-07T15:14:10Z</time>
      </trkpt>
      <trkpt lat="43.51431" lon="6.3842">
        <ele>209.3</ele>
        <time>2015-10-07T15:14:21Z</time>
      </trkpt>
      <trkpt lat="43.51435" lon="6.38429">
        <ele>208.5</ele>
        <time>2015-10-07T15:14:32Z</time>
      </trkpt>
      <trkpt lat="43.51438" lon="6.38439">
        <ele>209.1</ele>
        <time>2015-10-07T15:14:38Z</time>
      </trkpt>
      <trkpt lat="43.51443" lon="6.38449">
        <ele>208.7</ele>
        <time>2015-10-07T15:14:45Z</time>
      </trkpt>
      <trkpt lat="43.51443" lon="6.38451">
        <ele>208.7</ele>
        <time>2015-10-07T15:14:46Z</time>
      </trkpt>
      <trkpt lat="43.51451" lon="6.38469">
        <ele>209</ele>
        <time>2015-10-07T15:14:58Z</time>
      </trkpt>
      <trkpt lat="43.51456" lon="6.38479">
        <ele>208.1</ele>
        <time>2015-10-07T15:15:06Z</time>
      </trkpt>
      <trkpt lat="43.5146" lon="6.38489">
        <ele>207.7</ele>
        <time>2015-10-07T15:15:13Z</time>
      </trkpt>
      <trkpt lat="43.51464" lon="6.38499">
        <ele>207.6</ele>
        <time>2015-10-07T15:15:20Z</time>
      </trkpt>
      <trkpt lat="43.51469" lon="6.38507">
        <ele>207.8</ele>
        <time>2015-10-07T15:15:24Z</time>
      </trkpt>
      <trkpt lat="43.51476" lon="6.38515">
        <ele>208.6</ele>
        <time>2015-10-07T15:15:34Z</time>
      </trkpt>
      <trkpt lat="43.51482" lon="6.38521">
        <ele>208.3</ele>
        <time>2015-10-07T15:15:39Z</time>
      </trkpt>
      <trkpt lat="43.51491" lon="6.38526">
        <ele>208.6</ele>
        <time>2015-10-07T15:15:46Z</time>
      </trkpt>
      <trkpt lat="43.51492" lon="6.38526">
        <ele>208.6</ele>
        <time>2015-10-07T15:15:47Z</time>
      </trkpt>
      <trkpt lat="43.51507" lon="6.38532">
        <ele>206.6</ele>
        <time>2015-10-07T15:16:07Z</time>
      </trkpt>
      <trkpt lat="43.51515" lon="6.38533">
        <ele>206.5</ele>
        <time>2015-10-07T15:16:16Z</time>
      </trkpt>
      <trkpt lat="43.51523" lon="6.38537">
        <ele>207.4</ele>
        <time>2015-10-07T15:16:26Z</time>
      </trkpt>
      <trkpt lat="43.51526" lon="6.38547">
        <ele>208.1</ele>
        <time>2015-10-07T15:16:50Z</time>
      </trkpt>
      <trkpt lat="43.51526" lon="6.3855">
        <ele>208.2</ele>
        <time>2015-10-07T15:16:51Z</time>
      </trkpt>
      <trkpt lat="43.51524" lon="6.3857">
        <ele>206.5</ele>
        <time>2015-10-07T15:17:08Z</time>
      </trkpt>
      <trkpt lat="43.51525" lon="6.3858">
        <ele>206.4</ele>
        <time>2015-10-07T15:17:13Z</time>
      </trkpt>
      <trkpt lat="43.51525" lon="6.38593">
        <ele>206.2</ele>
        <time>2015-10-07T15:17:19Z</time>
      </trkpt>
      <trkpt lat="43.51523" lon="6.38603">
        <ele>205.5</ele>
        <time>2015-10-07T15:17:26Z</time>
      </trkpt>
      <trkpt lat="43.51524" lon="6.38614">
        <ele>205.6</ele>
        <time>2015-10-07T15:17:30Z</time>
      </trkpt>
      <trkpt lat="43.51523" lon="6.38626">
        <ele>204.9</ele>
        <time>2015-10-07T15:17:38Z</time>
      </trkpt>
      <trkpt lat="43.51521" lon="6.38637">
        <ele>205</ele>
        <time>2015-10-07T15:17:46Z</time>
      </trkpt>
      <trkpt lat="43.51518" lon="6.38647">
        <ele>204.5</ele>
        <time>2015-10-07T15:17:52Z</time>
      </trkpt>
      <trkpt lat="43.51518" lon="6.38649">
        <ele>204.6</ele>
        <time>2015-10-07T15:17:53Z</time>
      </trkpt>
      <trkpt lat="43.51512" lon="6.38668">
        <ele>205.1</ele>
        <time>2015-10-07T15:18:04Z</time>
      </trkpt>
      <trkpt lat="43.51507" lon="6.38676">
        <ele>204.8</ele>
        <time>2015-10-07T15:18:11Z</time>
      </trkpt>
      <trkpt lat="43.51503" lon="6.38687">
        <ele>205.4</ele>
        <time>2015-10-07T15:18:18Z</time>
      </trkpt>
      <trkpt lat="43.51496" lon="6.38694">
        <ele>204.9</ele>
        <time>2015-10-07T15:18:26Z</time>
      </trkpt>
      <trkpt lat="43.51488" lon="6.38699">
        <ele>204.1</ele>
        <time>2015-10-07T15:18:33Z</time>
      </trkpt>
      <trkpt lat="43.51484" lon="6.3871">
        <ele>204</ele>
        <time>2015-10-07T15:18:40Z</time>
      </trkpt>
      <trkpt lat="43.51479" lon="6.38718">
        <ele>203.4</ele>
        <time>2015-10-07T15:18:46Z</time>
      </trkpt>
      <trkpt lat="43.51473" lon="6.38726">
        <ele>203.2</ele>
        <time>2015-10-07T15:18:53Z</time>
      </trkpt>
      <trkpt lat="43.51472" lon="6.38727">
        <ele>203.4</ele>
        <time>2015-10-07T15:18:54Z</time>
      </trkpt>
      <trkpt lat="43.51461" lon="6.38742">
        <ele>203.2</ele>
        <time>2015-10-07T15:19:06Z</time>
      </trkpt>
      <trkpt lat="43.51455" lon="6.3875">
        <ele>203</ele>
        <time>2015-10-07T15:19:14Z</time>
      </trkpt>
      <trkpt lat="43.51448" lon="6.38756">
        <ele>202.8</ele>
        <time>2015-10-07T15:19:23Z</time>
      </trkpt>
      <trkpt lat="43.51442" lon="6.38764">
        <ele>203.6</ele>
        <time>2015-10-07T15:19:30Z</time>
      </trkpt>
      <trkpt lat="43.51437" lon="6.38774">
        <ele>202.8</ele>
        <time>2015-10-07T15:19:37Z</time>
      </trkpt>
      <trkpt lat="43.51435" lon="6.38785">
        <ele>202.4</ele>
        <time>2015-10-07T15:19:43Z</time>
      </trkpt>
      <trkpt lat="43.51431" lon="6.38794">
        <ele>202.5</ele>
        <time>2015-10-07T15:19:50Z</time>
      </trkpt>
      <trkpt lat="43.51425" lon="6.38803">
        <ele>201.9</ele>
        <time>2015-10-07T15:19:58Z</time>
      </trkpt>
      <trkpt lat="43.51425" lon="6.38804">
        <ele>202.2</ele>
        <time>2015-10-07T15:19:59Z</time>
      </trkpt>
      <trkpt lat="43.51419" lon="6.38825">
        <ele>201.7</ele>
        <time>2015-10-07T15:20:17Z</time>
      </trkpt>
      <trkpt lat="43.51414" lon="6.38833">
        <ele>201.1</ele>
        <time>2015-10-07T15:20:25Z</time>
      </trkpt>
      <trkpt lat="43.51411" lon="6.38844">
        <ele>201</ele>
        <time>2015-10-07T15:20:31Z</time>
      </trkpt>
      <trkpt lat="43.51412" lon="6.38853">
        <ele>201.3</ele>
        <time>2015-10-07T15:20:34Z</time>
      </trkpt>
      <trkpt lat="43.51411" lon="6.38865">
        <ele>201.7</ele>
        <time>2015-10-07T15:20:39Z</time>
      </trkpt>
      <trkpt lat="43.51408" lon="6.38875">
        <ele>203.2</ele>
        <time>2015-10-07T15:20:50Z</time>
      </trkpt>
      <trkpt lat="43.51403" lon="6.38886">
        <ele>204.6</ele>
        <time>2015-10-07T15:21:04Z</time>
      </trkpt>
      <trkpt lat="43.51403" lon="6.38887">
        <ele>204.8</ele>
        <time>2015-10-07T15:21:05Z</time>
      </trkpt>
      <trkpt lat="43.51404" lon="6.38909">
        <ele>205.7</ele>
        <time>2015-10-07T15:21:25Z</time>
      </trkpt>
      <trkpt lat="43.51403" lon="6.3892">
        <ele>204.9</ele>
        <time>2015-10-07T15:21:33Z</time>
      </trkpt>
      <trkpt lat="43.51395" lon="6.38924">
        <ele>204.8</ele>
        <time>2015-10-07T15:21:42Z</time>
      </trkpt>
      <trkpt lat="43.51386" lon="6.38926">
        <ele>203.9</ele>
        <time>2015-10-07T15:22:07Z</time>
      </trkpt>
      <trkpt lat="43.51386" lon="6.38926">
        <ele>204</ele>
        <time>2015-10-07T15:22:08Z</time>
      </trkpt>
      <trkpt lat="43.5137" lon="6.38932">
        <ele>201.8</ele>
        <time>2015-10-07T15:22:36Z</time>
      </trkpt>
      <trkpt lat="43.51361" lon="6.38931">
        <ele>201</ele>
        <time>2015-10-07T15:22:47Z</time>
      </trkpt>
      <trkpt lat="43.51354" lon="6.38924">
        <ele>200.7</ele>
        <time>2015-10-07T15:22:57Z</time>
      </trkpt>
      <trkpt lat="43.51346" lon="6.38919">
        <ele>199.3</ele>
        <time>2015-10-07T15:23:09Z</time>
      </trkpt>
      <trkpt lat="43.51346" lon="6.38918">
        <ele>199.4</ele>
        <time>2015-10-07T15:23:10Z</time>
      </trkpt>
    </trkseg>
  </trk>
</gpx>